<?xml version="1.0" encoding="UTF-8" standalone="no" ?>
<gpx xmlns="http://www.topografix.com/GPX/1/1" xmlns:xsi="http://www.w3.org/2001/XMLSchema-instance" xsi:schemaLocation="http://www.topografix.com/GPX/1/1 http://www.topografix.com/GPX/1/1/gpx.xsd" version="1.1" creator="VisuGPX - https://www.visugpx.com">
  <metadata>
    <name>Boucle sur les crêtes au dessus de Combovin</name>
    <desc><![CDATA[Boucle au départ de Combovin par Serre Bochon, Malitas, le Pas du Lièvre, le Pas de Fontfène et le Pas de Boussière.

[b]Montée au Pas du Lièvre[/b]
Sentier extrêmement raide entre son départ de la piste venant de Branchet et Malitas. Globalement bien marqué sauf dans le secteur de Malitas où il est un peu moins visible. Contrairement à ce qu'indique la carte IGN il débouche bien au Pas du Lièvre.

[b]Du Pas du Lièvre au point 819[/b]
Vieux sentier peu emprunté mais bien marqué et pas embroussaillé.]]></desc>
  </metadata>
  <trk>
    <name><![CDATA[2025-02-06 15:16:26]]></name>
    <trkseg>
      <trkpt lat="44.87118" lon="5.07729">
        <ele>374.57</ele>
        <time>2025-02-06T08:23:58Z</time>
      </trkpt>
      <trkpt lat="44.8712" lon="5.07729">
        <ele>375.05</ele>
        <time>2025-02-06T08:24:20Z</time>
      </trkpt>
      <trkpt lat="44.87135" lon="5.07725">
        <ele>374.57</ele>
        <time>2025-02-06T08:24:35Z</time>
      </trkpt>
      <trkpt lat="44.87158" lon="5.0772">
        <ele>374.09</ele>
        <time>2025-02-06T08:24:53Z</time>
      </trkpt>
      <trkpt lat="44.87184" lon="5.07722">
        <ele>374.09</ele>
        <time>2025-02-06T08:25:12Z</time>
      </trkpt>
      <trkpt lat="44.87208" lon="5.07724">
        <ele>374.09</ele>
        <time>2025-02-06T08:25:30Z</time>
      </trkpt>
      <trkpt lat="44.87229" lon="5.07728">
        <ele>374.09</ele>
        <time>2025-02-06T08:25:46Z</time>
      </trkpt>
      <trkpt lat="44.87254" lon="5.07735">
        <ele>374.09</ele>
        <time>2025-02-06T08:26:05Z</time>
      </trkpt>
      <trkpt lat="44.87281" lon="5.07739">
        <ele>373.61</ele>
        <time>2025-02-06T08:26:24Z</time>
      </trkpt>
      <trkpt lat="44.87307" lon="5.07745">
        <ele>372.65</ele>
        <time>2025-02-06T08:26:43Z</time>
      </trkpt>
      <trkpt lat="44.87321" lon="5.0775">
        <ele>371.69</ele>
        <time>2025-02-06T08:26:56Z</time>
      </trkpt>
      <trkpt lat="44.87344" lon="5.07769">
        <ele>371.21</ele>
        <time>2025-02-06T08:27:13Z</time>
      </trkpt>
      <trkpt lat="44.87357" lon="5.07792">
        <ele>369.76</ele>
        <time>2025-02-06T08:27:28Z</time>
      </trkpt>
      <trkpt lat="44.87371" lon="5.07814">
        <ele>369.76</ele>
        <time>2025-02-06T08:27:44Z</time>
      </trkpt>
      <trkpt lat="44.87394" lon="5.07826">
        <ele>370.73</ele>
        <time>2025-02-06T08:28:02Z</time>
      </trkpt>
      <trkpt lat="44.87413" lon="5.07839">
        <ele>372.65</ele>
        <time>2025-02-06T08:28:19Z</time>
      </trkpt>
      <trkpt lat="44.8743" lon="5.07855">
        <ele>374.57</ele>
        <time>2025-02-06T08:28:34Z</time>
      </trkpt>
      <trkpt lat="44.87445" lon="5.07863">
        <ele>375.53</ele>
        <time>2025-02-06T08:28:47Z</time>
      </trkpt>
      <trkpt lat="44.87456" lon="5.07869">
        <ele>376.01</ele>
        <time>2025-02-06T08:28:54Z</time>
      </trkpt>
      <trkpt lat="44.87467" lon="5.07878">
        <ele>377.94</ele>
        <time>2025-02-06T08:29:02Z</time>
      </trkpt>
      <trkpt lat="44.8747" lon="5.07881">
        <ele>377.94</ele>
        <time>2025-02-06T08:29:05Z</time>
      </trkpt>
      <trkpt lat="44.87487" lon="5.07882">
        <ele>377.94</ele>
        <time>2025-02-06T08:29:18Z</time>
      </trkpt>
      <trkpt lat="44.87507" lon="5.07863">
        <ele>378.42</ele>
        <time>2025-02-06T08:29:35Z</time>
      </trkpt>
      <trkpt lat="44.87514" lon="5.07854">
        <ele>378.9</ele>
        <time>2025-02-06T08:29:42Z</time>
      </trkpt>
      <trkpt lat="44.87519" lon="5.07848">
        <ele>379.38</ele>
        <time>2025-02-06T08:29:47Z</time>
      </trkpt>
      <trkpt lat="44.87528" lon="5.07839">
        <ele>379.86</ele>
        <time>2025-02-06T08:29:55Z</time>
      </trkpt>
      <trkpt lat="44.87538" lon="5.07838">
        <ele>382.74</ele>
        <time>2025-02-06T08:30:05Z</time>
      </trkpt>
      <trkpt lat="44.87552" lon="5.07841">
        <ele>386.11</ele>
        <time>2025-02-06T08:30:19Z</time>
      </trkpt>
      <trkpt lat="44.87568" lon="5.07853">
        <ele>389.47</ele>
        <time>2025-02-06T08:30:36Z</time>
      </trkpt>
      <trkpt lat="44.87579" lon="5.07862">
        <ele>392.84</ele>
        <time>2025-02-06T08:30:50Z</time>
      </trkpt>
      <trkpt lat="44.87584" lon="5.07867">
        <ele>394.28</ele>
        <time>2025-02-06T08:30:57Z</time>
      </trkpt>
      <trkpt lat="44.8759" lon="5.07873">
        <ele>396.2</ele>
        <time>2025-02-06T08:31:05Z</time>
      </trkpt>
      <trkpt lat="44.87594" lon="5.0788">
        <ele>396.2</ele>
        <time>2025-02-06T08:31:18Z</time>
      </trkpt>
      <trkpt lat="44.87597" lon="5.07887">
        <ele>396.2</ele>
        <time>2025-02-06T08:31:29Z</time>
      </trkpt>
      <trkpt lat="44.87598" lon="5.07912">
        <ele>398.12</ele>
        <time>2025-02-06T08:31:44Z</time>
      </trkpt>
      <trkpt lat="44.87594" lon="5.07933">
        <ele>400.05</ele>
        <time>2025-02-06T08:31:59Z</time>
      </trkpt>
      <trkpt lat="44.87584" lon="5.07957">
        <ele>401.97</ele>
        <time>2025-02-06T08:32:15Z</time>
      </trkpt>
      <trkpt lat="44.87581" lon="5.0796">
        <ele>402.93</ele>
        <time>2025-02-06T08:32:18Z</time>
      </trkpt>
      <trkpt lat="44.87573" lon="5.07977">
        <ele>405.33</ele>
        <time>2025-02-06T08:32:33Z</time>
      </trkpt>
      <trkpt lat="44.87568" lon="5.0799">
        <ele>408.22</ele>
        <time>2025-02-06T08:32:45Z</time>
      </trkpt>
      <trkpt lat="44.87562" lon="5.08007">
        <ele>410.62</ele>
        <time>2025-02-06T08:33:00Z</time>
      </trkpt>
      <trkpt lat="44.87555" lon="5.08024">
        <ele>413.5</ele>
        <time>2025-02-06T08:33:15Z</time>
      </trkpt>
      <trkpt lat="44.87548" lon="5.08036">
        <ele>415.43</ele>
        <time>2025-02-06T08:33:25Z</time>
      </trkpt>
      <trkpt lat="44.87538" lon="5.08064">
        <ele>415.91</ele>
        <time>2025-02-06T08:33:44Z</time>
      </trkpt>
      <trkpt lat="44.87534" lon="5.08088">
        <ele>417.35</ele>
        <time>2025-02-06T08:34:00Z</time>
      </trkpt>
      <trkpt lat="44.87531" lon="5.08109">
        <ele>419.75</ele>
        <time>2025-02-06T08:34:14Z</time>
      </trkpt>
      <trkpt lat="44.87532" lon="5.08131">
        <ele>421.68</ele>
        <time>2025-02-06T08:34:29Z</time>
      </trkpt>
      <trkpt lat="44.87532" lon="5.08135">
        <ele>422.16</ele>
        <time>2025-02-06T08:34:33Z</time>
      </trkpt>
      <trkpt lat="44.87533" lon="5.08139">
        <ele>422.64</ele>
        <time>2025-02-06T08:34:36Z</time>
      </trkpt>
      <trkpt lat="44.87535" lon="5.0815">
        <ele>423.12</ele>
        <time>2025-02-06T08:34:44Z</time>
      </trkpt>
      <trkpt lat="44.87536" lon="5.08163">
        <ele>423.6</ele>
        <time>2025-02-06T08:34:53Z</time>
      </trkpt>
      <trkpt lat="44.87537" lon="5.08168">
        <ele>424.08</ele>
        <time>2025-02-06T08:34:56Z</time>
      </trkpt>
      <trkpt lat="44.87535" lon="5.08193">
        <ele>425.52</ele>
        <time>2025-02-06T08:35:11Z</time>
      </trkpt>
      <trkpt lat="44.87531" lon="5.08219">
        <ele>426.96</ele>
        <time>2025-02-06T08:35:27Z</time>
      </trkpt>
      <trkpt lat="44.87531" lon="5.0822">
        <ele>426.96</ele>
        <time>2025-02-06T08:35:28Z</time>
      </trkpt>
      <trkpt lat="44.87531" lon="5.08239">
        <ele>429.85</ele>
        <time>2025-02-06T08:35:42Z</time>
      </trkpt>
      <trkpt lat="44.87531" lon="5.08255">
        <ele>433.21</ele>
        <time>2025-02-06T08:35:56Z</time>
      </trkpt>
      <trkpt lat="44.87532" lon="5.08274">
        <ele>436.1</ele>
        <time>2025-02-06T08:36:12Z</time>
      </trkpt>
      <trkpt lat="44.87535" lon="5.0829">
        <ele>438.5</ele>
        <time>2025-02-06T08:36:27Z</time>
      </trkpt>
      <trkpt lat="44.87538" lon="5.08301">
        <ele>439.46</ele>
        <time>2025-02-06T08:36:36Z</time>
      </trkpt>
      <trkpt lat="44.87541" lon="5.0832">
        <ele>440.9</ele>
        <time>2025-02-06T08:36:50Z</time>
      </trkpt>
      <trkpt lat="44.87543" lon="5.08338">
        <ele>443.31</ele>
        <time>2025-02-06T08:37:05Z</time>
      </trkpt>
      <trkpt lat="44.87545" lon="5.08352">
        <ele>446.19</ele>
        <time>2025-02-06T08:37:19Z</time>
      </trkpt>
      <trkpt lat="44.87546" lon="5.08366">
        <ele>449.07</ele>
        <time>2025-02-06T08:37:32Z</time>
      </trkpt>
      <trkpt lat="44.87544" lon="5.08375">
        <ele>451.48</ele>
        <time>2025-02-06T08:37:43Z</time>
      </trkpt>
      <trkpt lat="44.87542" lon="5.08391">
        <ele>455.32</ele>
        <time>2025-02-06T08:37:58Z</time>
      </trkpt>
      <trkpt lat="44.87541" lon="5.084">
        <ele>456.28</ele>
        <time>2025-02-06T08:38:05Z</time>
      </trkpt>
      <trkpt lat="44.87537" lon="5.08413">
        <ele>458.69</ele>
        <time>2025-02-06T08:38:19Z</time>
      </trkpt>
      <trkpt lat="44.87526" lon="5.08422">
        <ele>460.13</ele>
        <time>2025-02-06T08:38:33Z</time>
      </trkpt>
      <trkpt lat="44.87518" lon="5.08424">
        <ele>461.57</ele>
        <time>2025-02-06T08:38:48Z</time>
      </trkpt>
      <trkpt lat="44.8751" lon="5.08427">
        <ele>462.05</ele>
        <time>2025-02-06T08:38:57Z</time>
      </trkpt>
      <trkpt lat="44.87498" lon="5.08444">
        <ele>463.97</ele>
        <time>2025-02-06T08:39:13Z</time>
      </trkpt>
      <trkpt lat="44.87491" lon="5.08463">
        <ele>464.45</ele>
        <time>2025-02-06T08:39:27Z</time>
      </trkpt>
      <trkpt lat="44.87485" lon="5.08476">
        <ele>467.34</ele>
        <time>2025-02-06T08:39:41Z</time>
      </trkpt>
      <trkpt lat="44.87484" lon="5.08477">
        <ele>467.82</ele>
        <time>2025-02-06T08:39:42Z</time>
      </trkpt>
      <trkpt lat="44.8748" lon="5.08481">
        <ele>469.26</ele>
        <time>2025-02-06T08:39:48Z</time>
      </trkpt>
      <trkpt lat="44.87478" lon="5.08498">
        <ele>472.14</ele>
        <time>2025-02-06T08:40:02Z</time>
      </trkpt>
      <trkpt lat="44.87478" lon="5.08502">
        <ele>473.11</ele>
        <time>2025-02-06T08:40:06Z</time>
      </trkpt>
      <trkpt lat="44.87476" lon="5.08519">
        <ele>476.47</ele>
        <time>2025-02-06T08:40:22Z</time>
      </trkpt>
      <trkpt lat="44.87478" lon="5.08532">
        <ele>477.91</ele>
        <time>2025-02-06T08:40:35Z</time>
      </trkpt>
      <trkpt lat="44.87479" lon="5.0855">
        <ele>479.84</ele>
        <time>2025-02-06T08:40:51Z</time>
      </trkpt>
      <trkpt lat="44.87479" lon="5.08566">
        <ele>481.28</ele>
        <time>2025-02-06T08:41:05Z</time>
      </trkpt>
      <trkpt lat="44.87479" lon="5.08575">
        <ele>481.76</ele>
        <time>2025-02-06T08:48:09Z</time>
      </trkpt>
      <trkpt lat="44.87474" lon="5.0859">
        <ele>484.16</ele>
        <time>2025-02-06T08:48:24Z</time>
      </trkpt>
      <trkpt lat="44.87469" lon="5.08608">
        <ele>486.08</ele>
        <time>2025-02-06T08:48:38Z</time>
      </trkpt>
      <trkpt lat="44.87464" lon="5.08629">
        <ele>488.49</ele>
        <time>2025-02-06T08:48:55Z</time>
      </trkpt>
      <trkpt lat="44.87464" lon="5.08641">
        <ele>491.85</ele>
        <time>2025-02-06T08:49:08Z</time>
      </trkpt>
      <trkpt lat="44.87464" lon="5.08656">
        <ele>495.22</ele>
        <time>2025-02-06T08:49:22Z</time>
      </trkpt>
      <trkpt lat="44.87459" lon="5.08671">
        <ele>497.62</ele>
        <time>2025-02-06T08:49:36Z</time>
      </trkpt>
      <trkpt lat="44.87455" lon="5.0869">
        <ele>498.58</ele>
        <time>2025-02-06T08:49:51Z</time>
      </trkpt>
      <trkpt lat="44.87449" lon="5.08706">
        <ele>501.46</ele>
        <time>2025-02-06T08:50:05Z</time>
      </trkpt>
      <trkpt lat="44.87446" lon="5.08725">
        <ele>504.35</ele>
        <time>2025-02-06T08:50:21Z</time>
      </trkpt>
      <trkpt lat="44.87444" lon="5.0874">
        <ele>507.71</ele>
        <time>2025-02-06T08:50:35Z</time>
      </trkpt>
      <trkpt lat="44.87442" lon="5.08755">
        <ele>510.6</ele>
        <time>2025-02-06T08:50:49Z</time>
      </trkpt>
      <trkpt lat="44.87438" lon="5.08772">
        <ele>511.56</ele>
        <time>2025-02-06T08:51:04Z</time>
      </trkpt>
      <trkpt lat="44.87432" lon="5.08789">
        <ele>511.08</ele>
        <time>2025-02-06T08:51:17Z</time>
      </trkpt>
      <trkpt lat="44.87429" lon="5.08797">
        <ele>511.08</ele>
        <time>2025-02-06T08:51:23Z</time>
      </trkpt>
      <trkpt lat="44.8742" lon="5.08814">
        <ele>511.08</ele>
        <time>2025-02-06T08:51:38Z</time>
      </trkpt>
      <trkpt lat="44.8741" lon="5.0884">
        <ele>511.56</ele>
        <time>2025-02-06T08:51:56Z</time>
      </trkpt>
      <trkpt lat="44.87409" lon="5.08844">
        <ele>512.04</ele>
        <time>2025-02-06T08:51:58Z</time>
      </trkpt>
      <trkpt lat="44.87403" lon="5.08866">
        <ele>511.56</ele>
        <time>2025-02-06T08:52:14Z</time>
      </trkpt>
      <trkpt lat="44.87399" lon="5.08888">
        <ele>512.52</ele>
        <time>2025-02-06T08:52:31Z</time>
      </trkpt>
      <trkpt lat="44.87396" lon="5.0891">
        <ele>513</ele>
        <time>2025-02-06T08:52:46Z</time>
      </trkpt>
      <trkpt lat="44.87391" lon="5.08933">
        <ele>511.56</ele>
        <time>2025-02-06T08:53:02Z</time>
      </trkpt>
      <trkpt lat="44.87391" lon="5.08935">
        <ele>511.56</ele>
        <time>2025-02-06T08:53:03Z</time>
      </trkpt>
      <trkpt lat="44.87388" lon="5.08954">
        <ele>509.16</ele>
        <time>2025-02-06T08:53:16Z</time>
      </trkpt>
      <trkpt lat="44.87385" lon="5.08981">
        <ele>505.79</ele>
        <time>2025-02-06T08:53:32Z</time>
      </trkpt>
      <trkpt lat="44.8738" lon="5.09004">
        <ele>503.39</ele>
        <time>2025-02-06T08:53:46Z</time>
      </trkpt>
      <trkpt lat="44.87378" lon="5.09025">
        <ele>502.91</ele>
        <time>2025-02-06T08:53:58Z</time>
      </trkpt>
      <trkpt lat="44.87374" lon="5.09037">
        <ele>502.43</ele>
        <time>2025-02-06T08:54:14Z</time>
      </trkpt>
      <trkpt lat="44.87372" lon="5.09043">
        <ele>502.43</ele>
        <time>2025-02-06T08:54:39Z</time>
      </trkpt>
      <trkpt lat="44.8737" lon="5.09054">
        <ele>502.43</ele>
        <time>2025-02-06T08:55:01Z</time>
      </trkpt>
      <trkpt lat="44.87369" lon="5.09055">
        <ele>503.87</ele>
        <time>2025-02-06T08:55:03Z</time>
      </trkpt>
      <trkpt lat="44.87366" lon="5.09072">
        <ele>506.27</ele>
        <time>2025-02-06T08:55:18Z</time>
      </trkpt>
      <trkpt lat="44.87364" lon="5.09076">
        <ele>507.23</ele>
        <time>2025-02-06T08:55:22Z</time>
      </trkpt>
      <trkpt lat="44.87361" lon="5.09092">
        <ele>510.12</ele>
        <time>2025-02-06T08:55:37Z</time>
      </trkpt>
      <trkpt lat="44.87358" lon="5.09108">
        <ele>513.48</ele>
        <time>2025-02-06T08:55:52Z</time>
      </trkpt>
      <trkpt lat="44.87357" lon="5.09121">
        <ele>516.37</ele>
        <time>2025-02-06T08:56:07Z</time>
      </trkpt>
      <trkpt lat="44.87355" lon="5.09132">
        <ele>519.73</ele>
        <time>2025-02-06T08:56:23Z</time>
      </trkpt>
      <trkpt lat="44.87352" lon="5.09141">
        <ele>523.09</ele>
        <time>2025-02-06T08:56:36Z</time>
      </trkpt>
      <trkpt lat="44.8735" lon="5.09151">
        <ele>526.46</ele>
        <time>2025-02-06T08:56:52Z</time>
      </trkpt>
      <trkpt lat="44.87352" lon="5.0916">
        <ele>529.34</ele>
        <time>2025-02-06T08:57:06Z</time>
      </trkpt>
      <trkpt lat="44.87348" lon="5.0917">
        <ele>532.71</ele>
        <time>2025-02-06T08:57:22Z</time>
      </trkpt>
      <trkpt lat="44.87343" lon="5.09183">
        <ele>536.07</ele>
        <time>2025-02-06T08:57:38Z</time>
      </trkpt>
      <trkpt lat="44.87338" lon="5.09196">
        <ele>538.96</ele>
        <time>2025-02-06T08:57:55Z</time>
      </trkpt>
      <trkpt lat="44.87335" lon="5.09205">
        <ele>541.84</ele>
        <time>2025-02-06T08:58:07Z</time>
      </trkpt>
      <trkpt lat="44.87328" lon="5.09219">
        <ele>544.24</ele>
        <time>2025-02-06T08:58:22Z</time>
      </trkpt>
      <trkpt lat="44.87321" lon="5.09234">
        <ele>544.72</ele>
        <time>2025-02-06T08:58:37Z</time>
      </trkpt>
      <trkpt lat="44.87317" lon="5.09247">
        <ele>544.72</ele>
        <time>2025-02-06T08:58:51Z</time>
      </trkpt>
      <trkpt lat="44.87314" lon="5.0926">
        <ele>544.72</ele>
        <time>2025-02-06T08:59:09Z</time>
      </trkpt>
      <trkpt lat="44.87311" lon="5.09261">
        <ele>545.2</ele>
        <time>2025-02-06T09:00:16Z</time>
      </trkpt>
      <trkpt lat="44.87309" lon="5.09262">
        <ele>545.69</ele>
        <time>2025-02-06T09:00:47Z</time>
      </trkpt>
      <trkpt lat="44.87294" lon="5.09264">
        <ele>546.17</ele>
        <time>2025-02-06T09:01:05Z</time>
      </trkpt>
      <trkpt lat="44.87282" lon="5.09278">
        <ele>547.61</ele>
        <time>2025-02-06T09:01:20Z</time>
      </trkpt>
      <trkpt lat="44.87279" lon="5.09292">
        <ele>548.09</ele>
        <time>2025-02-06T09:01:30Z</time>
      </trkpt>
      <trkpt lat="44.87279" lon="5.09298">
        <ele>549.05</ele>
        <time>2025-02-06T09:01:35Z</time>
      </trkpt>
      <trkpt lat="44.87278" lon="5.09316">
        <ele>551.45</ele>
        <time>2025-02-06T09:01:48Z</time>
      </trkpt>
      <trkpt lat="44.87276" lon="5.09335">
        <ele>551.93</ele>
        <time>2025-02-06T09:02:02Z</time>
      </trkpt>
      <trkpt lat="44.87275" lon="5.09343">
        <ele>552.41</ele>
        <time>2025-02-06T09:02:08Z</time>
      </trkpt>
      <trkpt lat="44.87276" lon="5.09351">
        <ele>552.9</ele>
        <time>2025-02-06T09:02:14Z</time>
      </trkpt>
      <trkpt lat="44.87269" lon="5.09362">
        <ele>553.38</ele>
        <time>2025-02-06T09:02:30Z</time>
      </trkpt>
      <trkpt lat="44.87264" lon="5.09364">
        <ele>553.38</ele>
        <time>2025-02-06T09:02:37Z</time>
      </trkpt>
      <trkpt lat="44.87262" lon="5.09368">
        <ele>553.38</ele>
        <time>2025-02-06T09:02:40Z</time>
      </trkpt>
      <trkpt lat="44.87261" lon="5.09372">
        <ele>551.93</ele>
        <time>2025-02-06T09:02:43Z</time>
      </trkpt>
      <trkpt lat="44.87259" lon="5.09374">
        <ele>551.93</ele>
        <time>2025-02-06T09:02:45Z</time>
      </trkpt>
      <trkpt lat="44.87252" lon="5.09377">
        <ele>554.82</ele>
        <time>2025-02-06T09:02:56Z</time>
      </trkpt>
      <trkpt lat="44.87246" lon="5.09385">
        <ele>558.18</ele>
        <time>2025-02-06T09:03:11Z</time>
      </trkpt>
      <trkpt lat="44.87238" lon="5.09397">
        <ele>561.07</ele>
        <time>2025-02-06T09:03:26Z</time>
      </trkpt>
      <trkpt lat="44.8723" lon="5.09409">
        <ele>563.47</ele>
        <time>2025-02-06T09:03:40Z</time>
      </trkpt>
      <trkpt lat="44.87223" lon="5.09415">
        <ele>563.95</ele>
        <time>2025-02-06T09:03:48Z</time>
      </trkpt>
      <trkpt lat="44.87214" lon="5.09427">
        <ele>565.87</ele>
        <time>2025-02-06T09:04:03Z</time>
      </trkpt>
      <trkpt lat="44.87207" lon="5.09438">
        <ele>569.24</ele>
        <time>2025-02-06T09:04:17Z</time>
      </trkpt>
      <trkpt lat="44.872" lon="5.09454">
        <ele>572.6</ele>
        <time>2025-02-06T09:04:35Z</time>
      </trkpt>
      <trkpt lat="44.87196" lon="5.09466">
        <ele>573.08</ele>
        <time>2025-02-06T09:04:49Z</time>
      </trkpt>
      <trkpt lat="44.87193" lon="5.0948">
        <ele>575.01</ele>
        <time>2025-02-06T09:05:06Z</time>
      </trkpt>
      <trkpt lat="44.87188" lon="5.09501">
        <ele>577.41</ele>
        <time>2025-02-06T09:05:22Z</time>
      </trkpt>
      <trkpt lat="44.8718" lon="5.09519">
        <ele>579.33</ele>
        <time>2025-02-06T09:05:38Z</time>
      </trkpt>
      <trkpt lat="44.87179" lon="5.09519">
        <ele>579.33</ele>
        <time>2025-02-06T09:05:39Z</time>
      </trkpt>
      <trkpt lat="44.87166" lon="5.09509">
        <ele>581.25</ele>
        <time>2025-02-06T09:05:55Z</time>
      </trkpt>
      <trkpt lat="44.87159" lon="5.09494">
        <ele>583.66</ele>
        <time>2025-02-06T09:06:08Z</time>
      </trkpt>
      <trkpt lat="44.87155" lon="5.09495">
        <ele>584.62</ele>
        <time>2025-02-06T09:06:14Z</time>
      </trkpt>
      <trkpt lat="44.87149" lon="5.09499">
        <ele>585.58</ele>
        <time>2025-02-06T09:06:21Z</time>
      </trkpt>
      <trkpt lat="44.87136" lon="5.09507">
        <ele>587.98</ele>
        <time>2025-02-06T09:06:37Z</time>
      </trkpt>
      <trkpt lat="44.87126" lon="5.09523">
        <ele>589.91</ele>
        <time>2025-02-06T09:06:52Z</time>
      </trkpt>
      <trkpt lat="44.87118" lon="5.09542">
        <ele>591.83</ele>
        <time>2025-02-06T09:07:07Z</time>
      </trkpt>
      <trkpt lat="44.87109" lon="5.09557">
        <ele>594.23</ele>
        <time>2025-02-06T09:07:21Z</time>
      </trkpt>
      <trkpt lat="44.87097" lon="5.09562">
        <ele>596.15</ele>
        <time>2025-02-06T09:07:34Z</time>
      </trkpt>
      <trkpt lat="44.87086" lon="5.09563">
        <ele>599.04</ele>
        <time>2025-02-06T09:07:50Z</time>
      </trkpt>
      <trkpt lat="44.87074" lon="5.09568">
        <ele>601.44</ele>
        <time>2025-02-06T09:08:03Z</time>
      </trkpt>
      <trkpt lat="44.87064" lon="5.0957">
        <ele>603.36</ele>
        <time>2025-02-06T09:08:16Z</time>
      </trkpt>
      <trkpt lat="44.87054" lon="5.09571">
        <ele>606.25</ele>
        <time>2025-02-06T09:08:30Z</time>
      </trkpt>
      <trkpt lat="44.87044" lon="5.0957">
        <ele>608.65</ele>
        <time>2025-02-06T09:08:45Z</time>
      </trkpt>
      <trkpt lat="44.87032" lon="5.09571">
        <ele>610.57</ele>
        <time>2025-02-06T09:09:00Z</time>
      </trkpt>
      <trkpt lat="44.87023" lon="5.09573">
        <ele>612.02</ele>
        <time>2025-02-06T09:09:12Z</time>
      </trkpt>
      <trkpt lat="44.87009" lon="5.0958">
        <ele>613.94</ele>
        <time>2025-02-06T09:09:28Z</time>
      </trkpt>
      <trkpt lat="44.86998" lon="5.09589">
        <ele>615.38</ele>
        <time>2025-02-06T09:09:42Z</time>
      </trkpt>
      <trkpt lat="44.86986" lon="5.09595">
        <ele>616.82</ele>
        <time>2025-02-06T09:09:56Z</time>
      </trkpt>
      <trkpt lat="44.86974" lon="5.09603">
        <ele>617.78</ele>
        <time>2025-02-06T09:10:10Z</time>
      </trkpt>
      <trkpt lat="44.86961" lon="5.09613">
        <ele>619.71</ele>
        <time>2025-02-06T09:10:26Z</time>
      </trkpt>
      <trkpt lat="44.8696" lon="5.09615">
        <ele>619.71</ele>
        <time>2025-02-06T09:10:28Z</time>
      </trkpt>
      <trkpt lat="44.86947" lon="5.09624">
        <ele>620.19</ele>
        <time>2025-02-06T09:10:43Z</time>
      </trkpt>
      <trkpt lat="44.8694" lon="5.09628">
        <ele>620.67</ele>
        <time>2025-02-06T09:10:57Z</time>
      </trkpt>
      <trkpt lat="44.86934" lon="5.09631">
        <ele>621.15</ele>
        <time>2025-02-06T09:11:12Z</time>
      </trkpt>
      <trkpt lat="44.86926" lon="5.09639">
        <ele>622.11</ele>
        <time>2025-02-06T09:11:24Z</time>
      </trkpt>
      <trkpt lat="44.86909" lon="5.09654">
        <ele>623.07</ele>
        <time>2025-02-06T09:11:43Z</time>
      </trkpt>
      <trkpt lat="44.86894" lon="5.09669">
        <ele>623.07</ele>
        <time>2025-02-06T09:11:59Z</time>
      </trkpt>
      <trkpt lat="44.86881" lon="5.09681">
        <ele>623.07</ele>
        <time>2025-02-06T09:12:12Z</time>
      </trkpt>
      <trkpt lat="44.86869" lon="5.09697">
        <ele>623.07</ele>
        <time>2025-02-06T09:12:28Z</time>
      </trkpt>
      <trkpt lat="44.86855" lon="5.09716">
        <ele>621.63</ele>
        <time>2025-02-06T09:12:46Z</time>
      </trkpt>
      <trkpt lat="44.86853" lon="5.09719">
        <ele>621.63</ele>
        <time>2025-02-06T09:12:50Z</time>
      </trkpt>
      <trkpt lat="44.86842" lon="5.0974">
        <ele>621.15</ele>
        <time>2025-02-06T09:13:05Z</time>
      </trkpt>
      <trkpt lat="44.86835" lon="5.09764">
        <ele>622.59</ele>
        <time>2025-02-06T09:13:24Z</time>
      </trkpt>
      <trkpt lat="44.86831" lon="5.09781">
        <ele>623.07</ele>
        <time>2025-02-06T09:13:37Z</time>
      </trkpt>
      <trkpt lat="44.86826" lon="5.09805">
        <ele>624.03</ele>
        <time>2025-02-06T09:13:52Z</time>
      </trkpt>
      <trkpt lat="44.86823" lon="5.09824">
        <ele>626.44</ele>
        <time>2025-02-06T09:14:07Z</time>
      </trkpt>
      <trkpt lat="44.86821" lon="5.09842">
        <ele>628.36</ele>
        <time>2025-02-06T09:14:20Z</time>
      </trkpt>
      <trkpt lat="44.86821" lon="5.09856">
        <ele>630.28</ele>
        <time>2025-02-06T09:14:35Z</time>
      </trkpt>
      <trkpt lat="44.86819" lon="5.09862">
        <ele>630.28</ele>
        <time>2025-02-06T09:14:54Z</time>
      </trkpt>
      <trkpt lat="44.86818" lon="5.09861">
        <ele>630.76</ele>
        <time>2025-02-06T09:15:11Z</time>
      </trkpt>
      <trkpt lat="44.8681" lon="5.09869">
        <ele>631.72</ele>
        <time>2025-02-06T09:15:26Z</time>
      </trkpt>
      <trkpt lat="44.86795" lon="5.09879">
        <ele>632.68</ele>
        <time>2025-02-06T09:15:43Z</time>
      </trkpt>
      <trkpt lat="44.86782" lon="5.09894">
        <ele>633.17</ele>
        <time>2025-02-06T09:15:58Z</time>
      </trkpt>
      <trkpt lat="44.86767" lon="5.09905">
        <ele>633.17</ele>
        <time>2025-02-06T09:16:13Z</time>
      </trkpt>
      <trkpt lat="44.86753" lon="5.09919">
        <ele>633.65</ele>
        <time>2025-02-06T09:16:29Z</time>
      </trkpt>
      <trkpt lat="44.8674" lon="5.09929">
        <ele>635.09</ele>
        <time>2025-02-06T09:16:45Z</time>
      </trkpt>
      <trkpt lat="44.86726" lon="5.09942">
        <ele>636.05</ele>
        <time>2025-02-06T09:17:00Z</time>
      </trkpt>
      <trkpt lat="44.86714" lon="5.09956">
        <ele>636.05</ele>
        <time>2025-02-06T09:17:16Z</time>
      </trkpt>
      <trkpt lat="44.86709" lon="5.09961">
        <ele>635.09</ele>
        <time>2025-02-06T09:17:22Z</time>
      </trkpt>
      <trkpt lat="44.86703" lon="5.09962">
        <ele>635.09</ele>
        <time>2025-02-06T09:17:28Z</time>
      </trkpt>
      <trkpt lat="44.86686" lon="5.09971">
        <ele>634.61</ele>
        <time>2025-02-06T09:17:44Z</time>
      </trkpt>
      <trkpt lat="44.86681" lon="5.09975">
        <ele>634.61</ele>
        <time>2025-02-06T09:17:49Z</time>
      </trkpt>
      <trkpt lat="44.86676" lon="5.0998">
        <ele>633.17</ele>
        <time>2025-02-06T09:17:53Z</time>
      </trkpt>
      <trkpt lat="44.8666" lon="5.09993">
        <ele>632.68</ele>
        <time>2025-02-06T09:18:09Z</time>
      </trkpt>
      <trkpt lat="44.86652" lon="5.09998">
        <ele>634.13</ele>
        <time>2025-02-06T09:18:17Z</time>
      </trkpt>
      <trkpt lat="44.8664" lon="5.10007">
        <ele>637.01</ele>
        <time>2025-02-06T09:18:31Z</time>
      </trkpt>
      <trkpt lat="44.86634" lon="5.1001">
        <ele>637.49</ele>
        <time>2025-02-06T09:18:35Z</time>
      </trkpt>
      <trkpt lat="44.86624" lon="5.10018">
        <ele>638.93</ele>
        <time>2025-02-06T09:18:47Z</time>
      </trkpt>
      <trkpt lat="44.86608" lon="5.10024">
        <ele>640.38</ele>
        <time>2025-02-06T09:19:03Z</time>
      </trkpt>
      <trkpt lat="44.86597" lon="5.10025">
        <ele>642.78</ele>
        <time>2025-02-06T09:19:15Z</time>
      </trkpt>
      <trkpt lat="44.86585" lon="5.10025">
        <ele>645.18</ele>
        <time>2025-02-06T09:19:30Z</time>
      </trkpt>
      <trkpt lat="44.86568" lon="5.10032">
        <ele>647.1</ele>
        <time>2025-02-06T09:19:46Z</time>
      </trkpt>
      <trkpt lat="44.86556" lon="5.10033">
        <ele>649.51</ele>
        <time>2025-02-06T09:19:59Z</time>
      </trkpt>
      <trkpt lat="44.86545" lon="5.10033">
        <ele>652.39</ele>
        <time>2025-02-06T09:20:13Z</time>
      </trkpt>
      <trkpt lat="44.86528" lon="5.10035">
        <ele>654.31</ele>
        <time>2025-02-06T09:20:29Z</time>
      </trkpt>
      <trkpt lat="44.86516" lon="5.10037">
        <ele>656.24</ele>
        <time>2025-02-06T09:20:42Z</time>
      </trkpt>
      <trkpt lat="44.86505" lon="5.10042">
        <ele>659.12</ele>
        <time>2025-02-06T09:20:55Z</time>
      </trkpt>
      <trkpt lat="44.86493" lon="5.10038">
        <ele>661.52</ele>
        <time>2025-02-06T09:21:09Z</time>
      </trkpt>
      <trkpt lat="44.8648" lon="5.10041">
        <ele>663.93</ele>
        <time>2025-02-06T09:21:23Z</time>
      </trkpt>
      <trkpt lat="44.86467" lon="5.1004">
        <ele>665.37</ele>
        <time>2025-02-06T09:21:36Z</time>
      </trkpt>
      <trkpt lat="44.86455" lon="5.10037">
        <ele>666.81</ele>
        <time>2025-02-06T09:21:49Z</time>
      </trkpt>
      <trkpt lat="44.86443" lon="5.10035">
        <ele>668.73</ele>
        <time>2025-02-06T09:22:03Z</time>
      </trkpt>
      <trkpt lat="44.86427" lon="5.10031">
        <ele>670.66</ele>
        <time>2025-02-06T09:22:18Z</time>
      </trkpt>
      <trkpt lat="44.86414" lon="5.10026">
        <ele>672.58</ele>
        <time>2025-02-06T09:22:31Z</time>
      </trkpt>
      <trkpt lat="44.86401" lon="5.10019">
        <ele>675.46</ele>
        <time>2025-02-06T09:22:48Z</time>
      </trkpt>
      <trkpt lat="44.86398" lon="5.10016">
        <ele>674.98</ele>
        <time>2025-02-06T09:23:19Z</time>
      </trkpt>
      <trkpt lat="44.86387" lon="5.10019">
        <ele>675.46</ele>
        <time>2025-02-06T09:23:32Z</time>
      </trkpt>
      <trkpt lat="44.86378" lon="5.10021">
        <ele>676.42</ele>
        <time>2025-02-06T09:23:43Z</time>
      </trkpt>
      <trkpt lat="44.86367" lon="5.10034">
        <ele>678.83</ele>
        <time>2025-02-06T09:23:57Z</time>
      </trkpt>
      <trkpt lat="44.86354" lon="5.10046">
        <ele>680.27</ele>
        <time>2025-02-06T09:24:11Z</time>
      </trkpt>
      <trkpt lat="44.86343" lon="5.10054">
        <ele>682.19</ele>
        <time>2025-02-06T09:24:24Z</time>
      </trkpt>
      <trkpt lat="44.86331" lon="5.10061">
        <ele>684.12</ele>
        <time>2025-02-06T09:24:37Z</time>
      </trkpt>
      <trkpt lat="44.8632" lon="5.10065">
        <ele>685.56</ele>
        <time>2025-02-06T09:24:52Z</time>
      </trkpt>
      <trkpt lat="44.86317" lon="5.10065">
        <ele>686.04</ele>
        <time>2025-02-06T09:25:09Z</time>
      </trkpt>
      <trkpt lat="44.86305" lon="5.10062">
        <ele>687.48</ele>
        <time>2025-02-06T09:28:37Z</time>
      </trkpt>
      <trkpt lat="44.86301" lon="5.10063">
        <ele>687.96</ele>
        <time>2025-02-06T09:28:41Z</time>
      </trkpt>
      <trkpt lat="44.86286" lon="5.10068">
        <ele>690.84</ele>
        <time>2025-02-06T09:28:57Z</time>
      </trkpt>
      <trkpt lat="44.86276" lon="5.1007">
        <ele>692.77</ele>
        <time>2025-02-06T09:29:11Z</time>
      </trkpt>
      <trkpt lat="44.86275" lon="5.1007">
        <ele>692.77</ele>
        <time>2025-02-06T09:29:12Z</time>
      </trkpt>
      <trkpt lat="44.86258" lon="5.10074">
        <ele>696.13</ele>
        <time>2025-02-06T09:29:28Z</time>
      </trkpt>
      <trkpt lat="44.86247" lon="5.10078">
        <ele>698.05</ele>
        <time>2025-02-06T09:29:42Z</time>
      </trkpt>
      <trkpt lat="44.86235" lon="5.10082">
        <ele>701.9</ele>
        <time>2025-02-06T09:29:58Z</time>
      </trkpt>
      <trkpt lat="44.86226" lon="5.10086">
        <ele>702.38</ele>
        <time>2025-02-06T09:30:10Z</time>
      </trkpt>
      <trkpt lat="44.86219" lon="5.10084">
        <ele>705.26</ele>
        <time>2025-02-06T09:30:23Z</time>
      </trkpt>
      <trkpt lat="44.86213" lon="5.10084">
        <ele>709.11</ele>
        <time>2025-02-06T09:30:36Z</time>
      </trkpt>
      <trkpt lat="44.86207" lon="5.1008">
        <ele>712.47</ele>
        <time>2025-02-06T09:30:50Z</time>
      </trkpt>
      <trkpt lat="44.86203" lon="5.10078">
        <ele>715.36</ele>
        <time>2025-02-06T09:31:02Z</time>
      </trkpt>
      <trkpt lat="44.862" lon="5.10077">
        <ele>716.32</ele>
        <time>2025-02-06T09:31:09Z</time>
      </trkpt>
      <trkpt lat="44.86195" lon="5.10072">
        <ele>719.68</ele>
        <time>2025-02-06T09:31:23Z</time>
      </trkpt>
      <trkpt lat="44.86192" lon="5.10069">
        <ele>722.57</ele>
        <time>2025-02-06T09:31:36Z</time>
      </trkpt>
      <trkpt lat="44.86189" lon="5.10068">
        <ele>725.45</ele>
        <time>2025-02-06T09:31:52Z</time>
      </trkpt>
      <trkpt lat="44.86185" lon="5.10064">
        <ele>728.82</ele>
        <time>2025-02-06T09:32:06Z</time>
      </trkpt>
      <trkpt lat="44.86181" lon="5.10061">
        <ele>731.7</ele>
        <time>2025-02-06T09:32:19Z</time>
      </trkpt>
      <trkpt lat="44.86178" lon="5.10057">
        <ele>734.58</ele>
        <time>2025-02-06T09:32:32Z</time>
      </trkpt>
      <trkpt lat="44.86176" lon="5.10046">
        <ele>737.95</ele>
        <time>2025-02-06T09:32:48Z</time>
      </trkpt>
      <trkpt lat="44.86169" lon="5.10042">
        <ele>740.35</ele>
        <time>2025-02-06T09:33:05Z</time>
      </trkpt>
      <trkpt lat="44.86163" lon="5.10037">
        <ele>741.79</ele>
        <time>2025-02-06T09:33:17Z</time>
      </trkpt>
      <trkpt lat="44.86162" lon="5.10026">
        <ele>744.68</ele>
        <time>2025-02-06T09:33:29Z</time>
      </trkpt>
      <trkpt lat="44.86158" lon="5.10014">
        <ele>746.12</ele>
        <time>2025-02-06T09:33:44Z</time>
      </trkpt>
      <trkpt lat="44.86156" lon="5.10009">
        <ele>747.08</ele>
        <time>2025-02-06T09:35:33Z</time>
      </trkpt>
      <trkpt lat="44.86151" lon="5.10009">
        <ele>747.08</ele>
        <time>2025-02-06T09:35:53Z</time>
      </trkpt>
      <trkpt lat="44.86139" lon="5.10005">
        <ele>748.04</ele>
        <time>2025-02-06T09:36:07Z</time>
      </trkpt>
      <trkpt lat="44.86126" lon="5.10014">
        <ele>749.49</ele>
        <time>2025-02-06T09:36:22Z</time>
      </trkpt>
      <trkpt lat="44.86114" lon="5.10013">
        <ele>752.85</ele>
        <time>2025-02-06T09:36:36Z</time>
      </trkpt>
      <trkpt lat="44.86102" lon="5.1001">
        <ele>756.21</ele>
        <time>2025-02-06T09:36:51Z</time>
      </trkpt>
      <trkpt lat="44.86092" lon="5.1002">
        <ele>758.62</ele>
        <time>2025-02-06T09:37:06Z</time>
      </trkpt>
      <trkpt lat="44.86089" lon="5.10031">
        <ele>760.06</ele>
        <time>2025-02-06T09:37:18Z</time>
      </trkpt>
      <trkpt lat="44.86085" lon="5.10044">
        <ele>760.54</ele>
        <time>2025-02-06T09:37:28Z</time>
      </trkpt>
      <trkpt lat="44.86085" lon="5.10049">
        <ele>761.02</ele>
        <time>2025-02-06T09:37:31Z</time>
      </trkpt>
      <trkpt lat="44.86076" lon="5.10059">
        <ele>761.98</ele>
        <time>2025-02-06T09:37:47Z</time>
      </trkpt>
      <trkpt lat="44.86068" lon="5.10066">
        <ele>763.42</ele>
        <time>2025-02-06T09:38:00Z</time>
      </trkpt>
      <trkpt lat="44.86057" lon="5.10065">
        <ele>765.83</ele>
        <time>2025-02-06T09:38:14Z</time>
      </trkpt>
      <trkpt lat="44.86044" lon="5.10061">
        <ele>768.71</ele>
        <time>2025-02-06T09:38:29Z</time>
      </trkpt>
      <trkpt lat="44.86037" lon="5.10054">
        <ele>771.11</ele>
        <time>2025-02-06T09:38:43Z</time>
      </trkpt>
      <trkpt lat="44.86024" lon="5.10048">
        <ele>771.6</ele>
        <time>2025-02-06T09:38:58Z</time>
      </trkpt>
      <trkpt lat="44.86009" lon="5.10049">
        <ele>772.08</ele>
        <time>2025-02-06T09:39:15Z</time>
      </trkpt>
      <trkpt lat="44.85996" lon="5.10051">
        <ele>772.08</ele>
        <time>2025-02-06T09:39:29Z</time>
      </trkpt>
      <trkpt lat="44.85989" lon="5.10058">
        <ele>772.56</ele>
        <time>2025-02-06T09:39:45Z</time>
      </trkpt>
      <trkpt lat="44.85985" lon="5.10072">
        <ele>772.56</ele>
        <time>2025-02-06T09:39:59Z</time>
      </trkpt>
      <trkpt lat="44.85986" lon="5.10082">
        <ele>771.11</ele>
        <time>2025-02-06T09:40:10Z</time>
      </trkpt>
      <trkpt lat="44.85985" lon="5.101">
        <ele>768.23</ele>
        <time>2025-02-06T09:40:24Z</time>
      </trkpt>
      <trkpt lat="44.8598" lon="5.10113">
        <ele>765.83</ele>
        <time>2025-02-06T09:40:37Z</time>
      </trkpt>
      <trkpt lat="44.85974" lon="5.10132">
        <ele>762.46</ele>
        <time>2025-02-06T09:40:51Z</time>
      </trkpt>
      <trkpt lat="44.85973" lon="5.10152">
        <ele>761.02</ele>
        <time>2025-02-06T09:41:06Z</time>
      </trkpt>
      <trkpt lat="44.85966" lon="5.10168">
        <ele>759.1</ele>
        <time>2025-02-06T09:41:19Z</time>
      </trkpt>
      <trkpt lat="44.85958" lon="5.10182">
        <ele>758.14</ele>
        <time>2025-02-06T09:41:35Z</time>
      </trkpt>
      <trkpt lat="44.85955" lon="5.10189">
        <ele>758.14</ele>
        <time>2025-02-06T09:41:39Z</time>
      </trkpt>
      <trkpt lat="44.8595" lon="5.10212">
        <ele>757.66</ele>
        <time>2025-02-06T09:41:54Z</time>
      </trkpt>
      <trkpt lat="44.85948" lon="5.10232">
        <ele>757.66</ele>
        <time>2025-02-06T09:42:07Z</time>
      </trkpt>
      <trkpt lat="44.85944" lon="5.10247">
        <ele>754.77</ele>
        <time>2025-02-06T09:42:19Z</time>
      </trkpt>
      <trkpt lat="44.85938" lon="5.10259">
        <ele>751.41</ele>
        <time>2025-02-06T09:42:30Z</time>
      </trkpt>
      <trkpt lat="44.85934" lon="5.10275">
        <ele>748.52</ele>
        <time>2025-02-06T09:42:44Z</time>
      </trkpt>
      <trkpt lat="44.85926" lon="5.10287">
        <ele>745.64</ele>
        <time>2025-02-06T09:42:57Z</time>
      </trkpt>
      <trkpt lat="44.85919" lon="5.10302">
        <ele>743.72</ele>
        <time>2025-02-06T09:43:11Z</time>
      </trkpt>
      <trkpt lat="44.85914" lon="5.10311">
        <ele>742.76</ele>
        <time>2025-02-06T09:43:17Z</time>
      </trkpt>
      <trkpt lat="44.85907" lon="5.10321">
        <ele>741.31</ele>
        <time>2025-02-06T09:43:26Z</time>
      </trkpt>
      <trkpt lat="44.85903" lon="5.10333">
        <ele>737.95</ele>
        <time>2025-02-06T09:43:39Z</time>
      </trkpt>
      <trkpt lat="44.85898" lon="5.10338">
        <ele>737.47</ele>
        <time>2025-02-06T09:43:56Z</time>
      </trkpt>
      <trkpt lat="44.85897" lon="5.10341">
        <ele>736.99</ele>
        <time>2025-02-06T09:50:16Z</time>
      </trkpt>
      <trkpt lat="44.85904" lon="5.10342">
        <ele>736.03</ele>
        <time>2025-02-06T09:50:28Z</time>
      </trkpt>
      <trkpt lat="44.85912" lon="5.10345">
        <ele>735.07</ele>
        <time>2025-02-06T09:50:41Z</time>
      </trkpt>
      <trkpt lat="44.85921" lon="5.10342">
        <ele>734.1</ele>
        <time>2025-02-06T09:50:58Z</time>
      </trkpt>
      <trkpt lat="44.85926" lon="5.10345">
        <ele>731.7</ele>
        <time>2025-02-06T09:51:15Z</time>
      </trkpt>
      <trkpt lat="44.85919" lon="5.10359">
        <ele>728.82</ele>
        <time>2025-02-06T09:51:27Z</time>
      </trkpt>
      <trkpt lat="44.85915" lon="5.10367">
        <ele>727.86</ele>
        <time>2025-02-06T09:51:32Z</time>
      </trkpt>
      <trkpt lat="44.85905" lon="5.10387">
        <ele>724.01</ele>
        <time>2025-02-06T09:51:46Z</time>
      </trkpt>
      <trkpt lat="44.859" lon="5.10405">
        <ele>721.13</ele>
        <time>2025-02-06T09:51:57Z</time>
      </trkpt>
      <trkpt lat="44.85899" lon="5.10408">
        <ele>720.16</ele>
        <time>2025-02-06T09:51:59Z</time>
      </trkpt>
      <trkpt lat="44.85897" lon="5.10422">
        <ele>716.8</ele>
        <time>2025-02-06T09:52:08Z</time>
      </trkpt>
      <trkpt lat="44.85897" lon="5.10439">
        <ele>713.92</ele>
        <time>2025-02-06T09:52:18Z</time>
      </trkpt>
      <trkpt lat="44.85904" lon="5.10462">
        <ele>712.47</ele>
        <time>2025-02-06T09:52:30Z</time>
      </trkpt>
      <trkpt lat="44.85905" lon="5.10483">
        <ele>709.11</ele>
        <time>2025-02-06T09:52:42Z</time>
      </trkpt>
      <trkpt lat="44.85902" lon="5.10507">
        <ele>705.75</ele>
        <time>2025-02-06T09:52:54Z</time>
      </trkpt>
      <trkpt lat="44.85901" lon="5.10524">
        <ele>702.38</ele>
        <time>2025-02-06T09:53:06Z</time>
      </trkpt>
      <trkpt lat="44.85899" lon="5.10533">
        <ele>699.5</ele>
        <time>2025-02-06T09:53:13Z</time>
      </trkpt>
      <trkpt lat="44.85896" lon="5.10547">
        <ele>696.61</ele>
        <time>2025-02-06T09:53:21Z</time>
      </trkpt>
      <trkpt lat="44.85894" lon="5.1056">
        <ele>693.25</ele>
        <time>2025-02-06T09:53:30Z</time>
      </trkpt>
      <trkpt lat="44.85893" lon="5.10563">
        <ele>692.77</ele>
        <time>2025-02-06T09:53:32Z</time>
      </trkpt>
      <trkpt lat="44.85891" lon="5.10574">
        <ele>690.36</ele>
        <time>2025-02-06T09:53:39Z</time>
      </trkpt>
      <trkpt lat="44.85887" lon="5.10583">
        <ele>688.92</ele>
        <time>2025-02-06T09:53:46Z</time>
      </trkpt>
      <trkpt lat="44.85883" lon="5.10592">
        <ele>687.48</ele>
        <time>2025-02-06T09:53:51Z</time>
      </trkpt>
      <trkpt lat="44.85882" lon="5.10609">
        <ele>684.6</ele>
        <time>2025-02-06T09:54:00Z</time>
      </trkpt>
      <trkpt lat="44.8588" lon="5.10625">
        <ele>683.63</ele>
        <time>2025-02-06T09:54:07Z</time>
      </trkpt>
      <trkpt lat="44.85876" lon="5.10652">
        <ele>682.67</ele>
        <time>2025-02-06T09:54:23Z</time>
      </trkpt>
      <trkpt lat="44.85876" lon="5.10654">
        <ele>682.67</ele>
        <time>2025-02-06T09:54:24Z</time>
      </trkpt>
      <trkpt lat="44.85876" lon="5.10661">
        <ele>681.71</ele>
        <time>2025-02-06T09:54:28Z</time>
      </trkpt>
      <trkpt lat="44.85875" lon="5.10667">
        <ele>681.23</ele>
        <time>2025-02-06T09:54:31Z</time>
      </trkpt>
      <trkpt lat="44.85867" lon="5.10695">
        <ele>680.27</ele>
        <time>2025-02-06T09:54:45Z</time>
      </trkpt>
      <trkpt lat="44.85863" lon="5.10713">
        <ele>676.91</ele>
        <time>2025-02-06T09:54:55Z</time>
      </trkpt>
      <trkpt lat="44.85862" lon="5.10719">
        <ele>675.94</ele>
        <time>2025-02-06T09:54:59Z</time>
      </trkpt>
      <trkpt lat="44.85858" lon="5.10726">
        <ele>675.46</ele>
        <time>2025-02-06T09:55:04Z</time>
      </trkpt>
      <trkpt lat="44.85844" lon="5.10747">
        <ele>672.1</ele>
        <time>2025-02-06T09:55:18Z</time>
      </trkpt>
      <trkpt lat="44.85838" lon="5.10762">
        <ele>671.14</ele>
        <time>2025-02-06T09:55:26Z</time>
      </trkpt>
      <trkpt lat="44.85836" lon="5.10775">
        <ele>670.18</ele>
        <time>2025-02-06T09:55:33Z</time>
      </trkpt>
      <trkpt lat="44.85839" lon="5.10784">
        <ele>667.77</ele>
        <time>2025-02-06T09:55:40Z</time>
      </trkpt>
      <trkpt lat="44.85845" lon="5.10791">
        <ele>664.41</ele>
        <time>2025-02-06T09:55:48Z</time>
      </trkpt>
      <trkpt lat="44.85847" lon="5.10794">
        <ele>663.45</ele>
        <time>2025-02-06T09:55:50Z</time>
      </trkpt>
      <trkpt lat="44.85852" lon="5.10803">
        <ele>659.12</ele>
        <time>2025-02-06T09:55:56Z</time>
      </trkpt>
      <trkpt lat="44.85858" lon="5.10806">
        <ele>656.24</ele>
        <time>2025-02-06T09:56:05Z</time>
      </trkpt>
      <trkpt lat="44.85871" lon="5.10799">
        <ele>652.87</ele>
        <time>2025-02-06T09:56:17Z</time>
      </trkpt>
      <trkpt lat="44.85881" lon="5.10786">
        <ele>649.51</ele>
        <time>2025-02-06T09:56:30Z</time>
      </trkpt>
      <trkpt lat="44.85885" lon="5.10782">
        <ele>648.55</ele>
        <time>2025-02-06T09:56:34Z</time>
      </trkpt>
      <trkpt lat="44.85895" lon="5.10779">
        <ele>645.66</ele>
        <time>2025-02-06T09:56:42Z</time>
      </trkpt>
      <trkpt lat="44.85907" lon="5.10771">
        <ele>642.78</ele>
        <time>2025-02-06T09:56:55Z</time>
      </trkpt>
      <trkpt lat="44.85908" lon="5.10769">
        <ele>641.82</ele>
        <time>2025-02-06T09:56:58Z</time>
      </trkpt>
      <trkpt lat="44.85928" lon="5.10747">
        <ele>638.45</ele>
        <time>2025-02-06T09:57:13Z</time>
      </trkpt>
      <trkpt lat="44.85938" lon="5.10731">
        <ele>635.09</ele>
        <time>2025-02-06T09:57:24Z</time>
      </trkpt>
      <trkpt lat="44.85947" lon="5.10713">
        <ele>633.17</ele>
        <time>2025-02-06T09:57:36Z</time>
      </trkpt>
      <trkpt lat="44.85959" lon="5.10699">
        <ele>629.8</ele>
        <time>2025-02-06T09:57:48Z</time>
      </trkpt>
      <trkpt lat="44.85966" lon="5.10691">
        <ele>626.92</ele>
        <time>2025-02-06T09:57:57Z</time>
      </trkpt>
      <trkpt lat="44.85972" lon="5.10682">
        <ele>623.55</ele>
        <time>2025-02-06T09:58:05Z</time>
      </trkpt>
      <trkpt lat="44.85974" lon="5.1068">
        <ele>623.07</ele>
        <time>2025-02-06T09:58:08Z</time>
      </trkpt>
      <trkpt lat="44.85987" lon="5.10675">
        <ele>618.75</ele>
        <time>2025-02-06T09:58:18Z</time>
      </trkpt>
      <trkpt lat="44.85997" lon="5.10668">
        <ele>615.38</ele>
        <time>2025-02-06T09:58:29Z</time>
      </trkpt>
      <trkpt lat="44.86005" lon="5.10664">
        <ele>613.94</ele>
        <time>2025-02-06T09:58:43Z</time>
      </trkpt>
      <trkpt lat="44.86011" lon="5.10659">
        <ele>613.94</ele>
        <time>2025-02-06T10:00:02Z</time>
      </trkpt>
      <trkpt lat="44.86016" lon="5.10652">
        <ele>613.46</ele>
        <time>2025-02-06T10:00:16Z</time>
      </trkpt>
      <trkpt lat="44.86024" lon="5.10646">
        <ele>611.06</ele>
        <time>2025-02-06T10:00:30Z</time>
      </trkpt>
      <trkpt lat="44.86034" lon="5.10631">
        <ele>610.09</ele>
        <time>2025-02-06T10:00:46Z</time>
      </trkpt>
      <trkpt lat="44.86043" lon="5.10623">
        <ele>610.09</ele>
        <time>2025-02-06T10:00:57Z</time>
      </trkpt>
      <trkpt lat="44.86054" lon="5.10616">
        <ele>609.13</ele>
        <time>2025-02-06T10:01:06Z</time>
      </trkpt>
      <trkpt lat="44.86067" lon="5.10606">
        <ele>606.73</ele>
        <time>2025-02-06T10:01:21Z</time>
      </trkpt>
      <trkpt lat="44.86083" lon="5.10603">
        <ele>603.85</ele>
        <time>2025-02-06T10:01:36Z</time>
      </trkpt>
      <trkpt lat="44.86098" lon="5.10599">
        <ele>602.4</ele>
        <time>2025-02-06T10:01:49Z</time>
      </trkpt>
      <trkpt lat="44.86111" lon="5.10601">
        <ele>601.44</ele>
        <time>2025-02-06T10:02:01Z</time>
      </trkpt>
      <trkpt lat="44.86115" lon="5.10602">
        <ele>601.44</ele>
        <time>2025-02-06T10:02:04Z</time>
      </trkpt>
      <trkpt lat="44.8613" lon="5.10596">
        <ele>598.08</ele>
        <time>2025-02-06T10:02:19Z</time>
      </trkpt>
      <trkpt lat="44.86139" lon="5.10593">
        <ele>595.19</ele>
        <time>2025-02-06T10:02:32Z</time>
      </trkpt>
      <trkpt lat="44.86152" lon="5.10585">
        <ele>592.31</ele>
        <time>2025-02-06T10:02:48Z</time>
      </trkpt>
      <trkpt lat="44.86165" lon="5.10582">
        <ele>589.91</ele>
        <time>2025-02-06T10:03:02Z</time>
      </trkpt>
      <trkpt lat="44.86171" lon="5.10578">
        <ele>588.46</ele>
        <time>2025-02-06T10:03:08Z</time>
      </trkpt>
      <trkpt lat="44.86178" lon="5.10579">
        <ele>587.02</ele>
        <time>2025-02-06T10:03:14Z</time>
      </trkpt>
      <trkpt lat="44.86186" lon="5.10576">
        <ele>586.06</ele>
        <time>2025-02-06T10:03:20Z</time>
      </trkpt>
      <trkpt lat="44.86195" lon="5.10561">
        <ele>585.1</ele>
        <time>2025-02-06T10:03:31Z</time>
      </trkpt>
      <trkpt lat="44.86199" lon="5.10555">
        <ele>583.18</ele>
        <time>2025-02-06T10:03:36Z</time>
      </trkpt>
      <trkpt lat="44.86213" lon="5.10542">
        <ele>579.33</ele>
        <time>2025-02-06T10:03:48Z</time>
      </trkpt>
      <trkpt lat="44.86224" lon="5.10535">
        <ele>576.45</ele>
        <time>2025-02-06T10:03:59Z</time>
      </trkpt>
      <trkpt lat="44.86228" lon="5.10533">
        <ele>575.01</ele>
        <time>2025-02-06T10:04:03Z</time>
      </trkpt>
      <trkpt lat="44.86232" lon="5.10529">
        <ele>574.04</ele>
        <time>2025-02-06T10:04:07Z</time>
      </trkpt>
      <trkpt lat="44.86243" lon="5.10522">
        <ele>570.68</ele>
        <time>2025-02-06T10:04:18Z</time>
      </trkpt>
      <trkpt lat="44.86253" lon="5.10516">
        <ele>567.32</ele>
        <time>2025-02-06T10:04:28Z</time>
      </trkpt>
      <trkpt lat="44.86267" lon="5.10509">
        <ele>563.95</ele>
        <time>2025-02-06T10:04:40Z</time>
      </trkpt>
      <trkpt lat="44.86282" lon="5.10504">
        <ele>562.03</ele>
        <time>2025-02-06T10:04:53Z</time>
      </trkpt>
      <trkpt lat="44.863" lon="5.10495">
        <ele>561.07</ele>
        <time>2025-02-06T10:05:06Z</time>
      </trkpt>
      <trkpt lat="44.86304" lon="5.10492">
        <ele>560.11</ele>
        <time>2025-02-06T10:05:09Z</time>
      </trkpt>
      <trkpt lat="44.86322" lon="5.10494">
        <ele>558.18</ele>
        <time>2025-02-06T10:05:24Z</time>
      </trkpt>
      <trkpt lat="44.86327" lon="5.10495">
        <ele>557.7</ele>
        <time>2025-02-06T10:05:28Z</time>
      </trkpt>
      <trkpt lat="44.86349" lon="5.1049">
        <ele>556.74</ele>
        <time>2025-02-06T10:05:43Z</time>
      </trkpt>
      <trkpt lat="44.8637" lon="5.10482">
        <ele>554.34</ele>
        <time>2025-02-06T10:05:59Z</time>
      </trkpt>
      <trkpt lat="44.8638" lon="5.10485">
        <ele>552.9</ele>
        <time>2025-02-06T10:06:07Z</time>
      </trkpt>
      <trkpt lat="44.86397" lon="5.10475">
        <ele>549.53</ele>
        <time>2025-02-06T10:06:21Z</time>
      </trkpt>
      <trkpt lat="44.86415" lon="5.1047">
        <ele>547.61</ele>
        <time>2025-02-06T10:06:35Z</time>
      </trkpt>
      <trkpt lat="44.86425" lon="5.1047">
        <ele>546.65</ele>
        <time>2025-02-06T10:06:43Z</time>
      </trkpt>
      <trkpt lat="44.86446" lon="5.10469">
        <ele>545.2</ele>
        <time>2025-02-06T10:06:59Z</time>
      </trkpt>
      <trkpt lat="44.8646" lon="5.10461">
        <ele>544.24</ele>
        <time>2025-02-06T10:07:15Z</time>
      </trkpt>
      <trkpt lat="44.86468" lon="5.10456">
        <ele>542.32</ele>
        <time>2025-02-06T10:07:31Z</time>
      </trkpt>
      <trkpt lat="44.86479" lon="5.10451">
        <ele>538.96</ele>
        <time>2025-02-06T10:07:43Z</time>
      </trkpt>
      <trkpt lat="44.86481" lon="5.10452">
        <ele>538.96</ele>
        <time>2025-02-06T10:07:56Z</time>
      </trkpt>
      <trkpt lat="44.86482" lon="5.10452">
        <ele>538.96</ele>
        <time>2025-02-06T10:08:14Z</time>
      </trkpt>
      <trkpt lat="44.86482" lon="5.10452">
        <ele>538.96</ele>
        <time>2025-02-06T10:08:36Z</time>
      </trkpt>
      <trkpt lat="44.86485" lon="5.10455">
        <ele>538.96</ele>
        <time>2025-02-06T10:08:54Z</time>
      </trkpt>
      <trkpt lat="44.8649" lon="5.10454">
        <ele>538.96</ele>
        <time>2025-02-06T10:08:59Z</time>
      </trkpt>
      <trkpt lat="44.86507" lon="5.10444">
        <ele>537.51</ele>
        <time>2025-02-06T10:09:16Z</time>
      </trkpt>
      <trkpt lat="44.86514" lon="5.10449">
        <ele>537.03</ele>
        <time>2025-02-06T10:09:22Z</time>
      </trkpt>
      <trkpt lat="44.8653" lon="5.1045">
        <ele>537.03</ele>
        <time>2025-02-06T10:09:37Z</time>
      </trkpt>
      <trkpt lat="44.86549" lon="5.10448">
        <ele>539.44</ele>
        <time>2025-02-06T10:09:52Z</time>
      </trkpt>
      <trkpt lat="44.86564" lon="5.10444">
        <ele>540.88</ele>
        <time>2025-02-06T10:10:05Z</time>
      </trkpt>
      <trkpt lat="44.86581" lon="5.10445">
        <ele>543.28</ele>
        <time>2025-02-06T10:10:20Z</time>
      </trkpt>
      <trkpt lat="44.86586" lon="5.10457">
        <ele>544.72</ele>
        <time>2025-02-06T10:10:28Z</time>
      </trkpt>
      <trkpt lat="44.86588" lon="5.10483">
        <ele>546.65</ele>
        <time>2025-02-06T10:10:44Z</time>
      </trkpt>
      <trkpt lat="44.86592" lon="5.10503">
        <ele>549.05</ele>
        <time>2025-02-06T10:10:59Z</time>
      </trkpt>
      <trkpt lat="44.86597" lon="5.10512">
        <ele>549.53</ele>
        <time>2025-02-06T10:11:07Z</time>
      </trkpt>
      <trkpt lat="44.8661" lon="5.1052">
        <ele>551.45</ele>
        <time>2025-02-06T10:11:22Z</time>
      </trkpt>
      <trkpt lat="44.86623" lon="5.1052">
        <ele>553.86</ele>
        <time>2025-02-06T10:11:35Z</time>
      </trkpt>
      <trkpt lat="44.86636" lon="5.10517">
        <ele>556.26</ele>
        <time>2025-02-06T10:11:48Z</time>
      </trkpt>
      <trkpt lat="44.86638" lon="5.10517">
        <ele>556.26</ele>
        <time>2025-02-06T10:11:50Z</time>
      </trkpt>
      <trkpt lat="44.86655" lon="5.10518">
        <ele>558.66</ele>
        <time>2025-02-06T10:12:06Z</time>
      </trkpt>
      <trkpt lat="44.86658" lon="5.10521">
        <ele>558.66</ele>
        <time>2025-02-06T10:12:09Z</time>
      </trkpt>
      <trkpt lat="44.8666" lon="5.10526">
        <ele>559.14</ele>
        <time>2025-02-06T10:12:13Z</time>
      </trkpt>
      <trkpt lat="44.8666" lon="5.10551">
        <ele>561.07</ele>
        <time>2025-02-06T10:12:28Z</time>
      </trkpt>
      <trkpt lat="44.8666" lon="5.10568">
        <ele>562.99</ele>
        <time>2025-02-06T10:12:40Z</time>
      </trkpt>
      <trkpt lat="44.86659" lon="5.10588">
        <ele>564.43</ele>
        <time>2025-02-06T10:12:55Z</time>
      </trkpt>
      <trkpt lat="44.8666" lon="5.10607">
        <ele>566.83</ele>
        <time>2025-02-06T10:13:09Z</time>
      </trkpt>
      <trkpt lat="44.8666" lon="5.10619">
        <ele>568.76</ele>
        <time>2025-02-06T10:13:23Z</time>
      </trkpt>
      <trkpt lat="44.86657" lon="5.10629">
        <ele>571.64</ele>
        <time>2025-02-06T10:13:38Z</time>
      </trkpt>
      <trkpt lat="44.86651" lon="5.10639">
        <ele>575.49</ele>
        <time>2025-02-06T10:13:53Z</time>
      </trkpt>
      <trkpt lat="44.86647" lon="5.10649">
        <ele>577.89</ele>
        <time>2025-02-06T10:14:06Z</time>
      </trkpt>
      <trkpt lat="44.86643" lon="5.10654">
        <ele>580.29</ele>
        <time>2025-02-06T10:14:21Z</time>
      </trkpt>
      <trkpt lat="44.86637" lon="5.10662">
        <ele>583.66</ele>
        <time>2025-02-06T10:14:36Z</time>
      </trkpt>
      <trkpt lat="44.86632" lon="5.10667">
        <ele>586.06</ele>
        <time>2025-02-06T10:14:50Z</time>
      </trkpt>
      <trkpt lat="44.86626" lon="5.10669">
        <ele>589.43</ele>
        <time>2025-02-06T10:15:06Z</time>
      </trkpt>
      <trkpt lat="44.86616" lon="5.10672">
        <ele>592.31</ele>
        <time>2025-02-06T10:15:22Z</time>
      </trkpt>
      <trkpt lat="44.86606" lon="5.10673">
        <ele>595.19</ele>
        <time>2025-02-06T10:15:39Z</time>
      </trkpt>
      <trkpt lat="44.86601" lon="5.10673">
        <ele>598.56</ele>
        <time>2025-02-06T10:15:56Z</time>
      </trkpt>
      <trkpt lat="44.86595" lon="5.10675">
        <ele>601.44</ele>
        <time>2025-02-06T10:16:10Z</time>
      </trkpt>
      <trkpt lat="44.86589" lon="5.1068">
        <ele>603.85</ele>
        <time>2025-02-06T10:16:24Z</time>
      </trkpt>
      <trkpt lat="44.86584" lon="5.10683">
        <ele>606.73</ele>
        <time>2025-02-06T10:16:39Z</time>
      </trkpt>
      <trkpt lat="44.86579" lon="5.10689">
        <ele>609.61</ele>
        <time>2025-02-06T10:16:55Z</time>
      </trkpt>
      <trkpt lat="44.86573" lon="5.10695">
        <ele>612.98</ele>
        <time>2025-02-06T10:17:13Z</time>
      </trkpt>
      <trkpt lat="44.86568" lon="5.10702">
        <ele>615.86</ele>
        <time>2025-02-06T10:17:30Z</time>
      </trkpt>
      <trkpt lat="44.86564" lon="5.10706">
        <ele>619.23</ele>
        <time>2025-02-06T10:17:47Z</time>
      </trkpt>
      <trkpt lat="44.86561" lon="5.10709">
        <ele>622.59</ele>
        <time>2025-02-06T10:18:02Z</time>
      </trkpt>
      <trkpt lat="44.86556" lon="5.10714">
        <ele>625.47</ele>
        <time>2025-02-06T10:18:20Z</time>
      </trkpt>
      <trkpt lat="44.86551" lon="5.10721">
        <ele>628.84</ele>
        <time>2025-02-06T10:18:38Z</time>
      </trkpt>
      <trkpt lat="44.86545" lon="5.10725">
        <ele>631.72</ele>
        <time>2025-02-06T10:18:54Z</time>
      </trkpt>
      <trkpt lat="44.86541" lon="5.10733">
        <ele>634.13</ele>
        <time>2025-02-06T10:19:11Z</time>
      </trkpt>
      <trkpt lat="44.86536" lon="5.1074">
        <ele>637.49</ele>
        <time>2025-02-06T10:19:26Z</time>
      </trkpt>
      <trkpt lat="44.86522" lon="5.10753">
        <ele>649.03</ele>
        <time>2025-02-06T10:23:04Z</time>
      </trkpt>
      <trkpt lat="44.86515" lon="5.10761">
        <ele>651.91</ele>
        <time>2025-02-06T10:23:17Z</time>
      </trkpt>
      <trkpt lat="44.86509" lon="5.10768">
        <ele>655.28</ele>
        <time>2025-02-06T10:23:32Z</time>
      </trkpt>
      <trkpt lat="44.86502" lon="5.10775">
        <ele>658.64</ele>
        <time>2025-02-06T10:23:49Z</time>
      </trkpt>
      <trkpt lat="44.86496" lon="5.10779">
        <ele>662.01</ele>
        <time>2025-02-06T10:24:05Z</time>
      </trkpt>
      <trkpt lat="44.8649" lon="5.10783">
        <ele>664.89</ele>
        <time>2025-02-06T10:24:22Z</time>
      </trkpt>
      <trkpt lat="44.86483" lon="5.10788">
        <ele>668.25</ele>
        <time>2025-02-06T10:24:41Z</time>
      </trkpt>
      <trkpt lat="44.86478" lon="5.10792">
        <ele>671.14</ele>
        <time>2025-02-06T10:24:57Z</time>
      </trkpt>
      <trkpt lat="44.86469" lon="5.10798">
        <ele>674.5</ele>
        <time>2025-02-06T10:25:14Z</time>
      </trkpt>
      <trkpt lat="44.86463" lon="5.10804">
        <ele>677.39</ele>
        <time>2025-02-06T10:25:31Z</time>
      </trkpt>
      <trkpt lat="44.86459" lon="5.10813">
        <ele>680.27</ele>
        <time>2025-02-06T10:25:49Z</time>
      </trkpt>
      <trkpt lat="44.86453" lon="5.10819">
        <ele>683.15</ele>
        <time>2025-02-06T10:26:04Z</time>
      </trkpt>
      <trkpt lat="44.86445" lon="5.10826">
        <ele>686.52</ele>
        <time>2025-02-06T10:26:23Z</time>
      </trkpt>
      <trkpt lat="44.86439" lon="5.10833">
        <ele>689.4</ele>
        <time>2025-02-06T10:26:42Z</time>
      </trkpt>
      <trkpt lat="44.86434" lon="5.10839">
        <ele>692.29</ele>
        <time>2025-02-06T10:26:57Z</time>
      </trkpt>
      <trkpt lat="44.86426" lon="5.10848">
        <ele>695.65</ele>
        <time>2025-02-06T10:27:16Z</time>
      </trkpt>
      <trkpt lat="44.86419" lon="5.10853">
        <ele>698.53</ele>
        <time>2025-02-06T10:27:33Z</time>
      </trkpt>
      <trkpt lat="44.86411" lon="5.10856">
        <ele>701.42</ele>
        <time>2025-02-06T10:27:50Z</time>
      </trkpt>
      <trkpt lat="44.86401" lon="5.1086">
        <ele>703.82</ele>
        <time>2025-02-06T10:28:06Z</time>
      </trkpt>
      <trkpt lat="44.86395" lon="5.10863">
        <ele>707.19</ele>
        <time>2025-02-06T10:28:25Z</time>
      </trkpt>
      <trkpt lat="44.8639" lon="5.10865">
        <ele>708.63</ele>
        <time>2025-02-06T10:28:44Z</time>
      </trkpt>
      <trkpt lat="44.86383" lon="5.10866">
        <ele>711.51</ele>
        <time>2025-02-06T10:29:01Z</time>
      </trkpt>
      <trkpt lat="44.86376" lon="5.10868">
        <ele>714.88</ele>
        <time>2025-02-06T10:29:19Z</time>
      </trkpt>
      <trkpt lat="44.86371" lon="5.10869">
        <ele>717.28</ele>
        <time>2025-02-06T10:29:34Z</time>
      </trkpt>
      <trkpt lat="44.86368" lon="5.1087">
        <ele>719.2</ele>
        <time>2025-02-06T10:31:58Z</time>
      </trkpt>
      <trkpt lat="44.86367" lon="5.10875">
        <ele>722.57</ele>
        <time>2025-02-06T10:32:13Z</time>
      </trkpt>
      <trkpt lat="44.86366" lon="5.10881">
        <ele>725.93</ele>
        <time>2025-02-06T10:32:30Z</time>
      </trkpt>
      <trkpt lat="44.86364" lon="5.10887">
        <ele>729.3</ele>
        <time>2025-02-06T10:32:49Z</time>
      </trkpt>
      <trkpt lat="44.8636" lon="5.1089">
        <ele>731.7</ele>
        <time>2025-02-06T10:33:04Z</time>
      </trkpt>
      <trkpt lat="44.86355" lon="5.10892">
        <ele>734.58</ele>
        <time>2025-02-06T10:33:20Z</time>
      </trkpt>
      <trkpt lat="44.86348" lon="5.10895">
        <ele>737.95</ele>
        <time>2025-02-06T10:33:37Z</time>
      </trkpt>
      <trkpt lat="44.86341" lon="5.10901">
        <ele>740.35</ele>
        <time>2025-02-06T10:33:55Z</time>
      </trkpt>
      <trkpt lat="44.86338" lon="5.10908">
        <ele>743.24</ele>
        <time>2025-02-06T10:34:10Z</time>
      </trkpt>
      <trkpt lat="44.86333" lon="5.10915">
        <ele>746.6</ele>
        <time>2025-02-06T10:34:27Z</time>
      </trkpt>
      <trkpt lat="44.86328" lon="5.10922">
        <ele>749</ele>
        <time>2025-02-06T10:34:47Z</time>
      </trkpt>
      <trkpt lat="44.86325" lon="5.10932">
        <ele>752.37</ele>
        <time>2025-02-06T10:35:04Z</time>
      </trkpt>
      <trkpt lat="44.86324" lon="5.10944">
        <ele>754.77</ele>
        <time>2025-02-06T10:35:21Z</time>
      </trkpt>
      <trkpt lat="44.86327" lon="5.10951">
        <ele>756.69</ele>
        <time>2025-02-06T10:35:35Z</time>
      </trkpt>
      <trkpt lat="44.86333" lon="5.10951">
        <ele>757.18</ele>
        <time>2025-02-06T10:35:52Z</time>
      </trkpt>
      <trkpt lat="44.86336" lon="5.1095">
        <ele>756.69</ele>
        <time>2025-02-06T10:39:29Z</time>
      </trkpt>
      <trkpt lat="44.86344" lon="5.10946">
        <ele>759.58</ele>
        <time>2025-02-06T10:39:41Z</time>
      </trkpt>
      <trkpt lat="44.86352" lon="5.10946">
        <ele>761.98</ele>
        <time>2025-02-06T10:39:57Z</time>
      </trkpt>
      <trkpt lat="44.86356" lon="5.1095">
        <ele>762.46</ele>
        <time>2025-02-06T10:40:16Z</time>
      </trkpt>
      <trkpt lat="44.86355" lon="5.10955">
        <ele>762.94</ele>
        <time>2025-02-06T10:40:35Z</time>
      </trkpt>
      <trkpt lat="44.86349" lon="5.10965">
        <ele>766.31</ele>
        <time>2025-02-06T10:40:51Z</time>
      </trkpt>
      <trkpt lat="44.86346" lon="5.10973">
        <ele>769.67</ele>
        <time>2025-02-06T10:41:05Z</time>
      </trkpt>
      <trkpt lat="44.8634" lon="5.10982">
        <ele>773.04</ele>
        <time>2025-02-06T10:41:22Z</time>
      </trkpt>
      <trkpt lat="44.86333" lon="5.10993">
        <ele>775.92</ele>
        <time>2025-02-06T10:41:40Z</time>
      </trkpt>
      <trkpt lat="44.86326" lon="5.11">
        <ele>778.81</ele>
        <time>2025-02-06T10:41:56Z</time>
      </trkpt>
      <trkpt lat="44.86319" lon="5.11008">
        <ele>781.69</ele>
        <time>2025-02-06T10:42:12Z</time>
      </trkpt>
      <trkpt lat="44.86311" lon="5.11016">
        <ele>785.05</ele>
        <time>2025-02-06T10:42:31Z</time>
      </trkpt>
      <trkpt lat="44.863" lon="5.11024">
        <ele>788.42</ele>
        <time>2025-02-06T10:42:50Z</time>
      </trkpt>
      <trkpt lat="44.86291" lon="5.1103">
        <ele>791.78</ele>
        <time>2025-02-06T10:43:05Z</time>
      </trkpt>
      <trkpt lat="44.86283" lon="5.11039">
        <ele>794.67</ele>
        <time>2025-02-06T10:43:23Z</time>
      </trkpt>
      <trkpt lat="44.86279" lon="5.11046">
        <ele>797.55</ele>
        <time>2025-02-06T10:43:37Z</time>
      </trkpt>
      <trkpt lat="44.86282" lon="5.11047">
        <ele>800.92</ele>
        <time>2025-02-06T10:43:50Z</time>
      </trkpt>
      <trkpt lat="44.86288" lon="5.11051">
        <ele>802.84</ele>
        <time>2025-02-06T10:44:05Z</time>
      </trkpt>
      <trkpt lat="44.86295" lon="5.11057">
        <ele>804.28</ele>
        <time>2025-02-06T10:44:21Z</time>
      </trkpt>
      <trkpt lat="44.863" lon="5.11065">
        <ele>806.68</ele>
        <time>2025-02-06T10:44:36Z</time>
      </trkpt>
      <trkpt lat="44.86305" lon="5.11074">
        <ele>808.13</ele>
        <time>2025-02-06T10:44:50Z</time>
      </trkpt>
      <trkpt lat="44.8631" lon="5.1108">
        <ele>809.57</ele>
        <time>2025-02-06T10:45:07Z</time>
      </trkpt>
      <trkpt lat="44.86318" lon="5.11087">
        <ele>811.49</ele>
        <time>2025-02-06T10:45:24Z</time>
      </trkpt>
      <trkpt lat="44.86326" lon="5.11101">
        <ele>814.37</ele>
        <time>2025-02-06T10:45:42Z</time>
      </trkpt>
      <trkpt lat="44.86335" lon="5.1111">
        <ele>817.26</ele>
        <time>2025-02-06T10:45:58Z</time>
      </trkpt>
      <trkpt lat="44.86342" lon="5.1112">
        <ele>820.14</ele>
        <time>2025-02-06T10:46:14Z</time>
      </trkpt>
      <trkpt lat="44.86339" lon="5.11131">
        <ele>822.55</ele>
        <time>2025-02-06T10:46:32Z</time>
      </trkpt>
      <trkpt lat="44.86335" lon="5.11143">
        <ele>825.43</ele>
        <time>2025-02-06T10:46:48Z</time>
      </trkpt>
      <trkpt lat="44.86325" lon="5.11154">
        <ele>827.83</ele>
        <time>2025-02-06T10:47:06Z</time>
      </trkpt>
      <trkpt lat="44.86318" lon="5.11166">
        <ele>831.2</ele>
        <time>2025-02-06T10:47:23Z</time>
      </trkpt>
      <trkpt lat="44.8631" lon="5.11176">
        <ele>833.6</ele>
        <time>2025-02-06T10:47:40Z</time>
      </trkpt>
      <trkpt lat="44.86314" lon="5.11179">
        <ele>836</ele>
        <time>2025-02-06T10:47:54Z</time>
      </trkpt>
      <trkpt lat="44.86318" lon="5.11181">
        <ele>839.37</ele>
        <time>2025-02-06T10:48:02Z</time>
      </trkpt>
      <trkpt lat="44.86323" lon="5.11184">
        <ele>840.33</ele>
        <time>2025-02-06T10:48:16Z</time>
      </trkpt>
      <trkpt lat="44.86331" lon="5.1119">
        <ele>842.25</ele>
        <time>2025-02-06T10:48:30Z</time>
      </trkpt>
      <trkpt lat="44.86338" lon="5.112">
        <ele>845.14</ele>
        <time>2025-02-06T10:48:45Z</time>
      </trkpt>
      <trkpt lat="44.86346" lon="5.11209">
        <ele>846.58</ele>
        <time>2025-02-06T10:49:00Z</time>
      </trkpt>
      <trkpt lat="44.86343" lon="5.11221">
        <ele>848.98</ele>
        <time>2025-02-06T10:49:17Z</time>
      </trkpt>
      <trkpt lat="44.86341" lon="5.11224">
        <ele>848.98</ele>
        <time>2025-02-06T10:49:42Z</time>
      </trkpt>
      <trkpt lat="44.86337" lon="5.11225">
        <ele>849.46</ele>
        <time>2025-02-06T10:53:41Z</time>
      </trkpt>
      <trkpt lat="44.86329" lon="5.1123">
        <ele>849.94</ele>
        <time>2025-02-06T10:54:06Z</time>
      </trkpt>
      <trkpt lat="44.86314" lon="5.11235">
        <ele>850.9</ele>
        <time>2025-02-06T10:54:22Z</time>
      </trkpt>
      <trkpt lat="44.86298" lon="5.11247">
        <ele>852.83</ele>
        <time>2025-02-06T10:54:41Z</time>
      </trkpt>
      <trkpt lat="44.86283" lon="5.11255">
        <ele>854.75</ele>
        <time>2025-02-06T10:54:57Z</time>
      </trkpt>
      <trkpt lat="44.86273" lon="5.11259">
        <ele>857.15</ele>
        <time>2025-02-06T10:55:10Z</time>
      </trkpt>
      <trkpt lat="44.86267" lon="5.11273">
        <ele>860.52</ele>
        <time>2025-02-06T10:55:25Z</time>
      </trkpt>
      <trkpt lat="44.86261" lon="5.11286">
        <ele>863.4</ele>
        <time>2025-02-06T10:55:40Z</time>
      </trkpt>
      <trkpt lat="44.86253" lon="5.11292">
        <ele>865.8</ele>
        <time>2025-02-06T10:55:57Z</time>
      </trkpt>
      <trkpt lat="44.86242" lon="5.11296">
        <ele>867.25</ele>
        <time>2025-02-06T10:56:10Z</time>
      </trkpt>
      <trkpt lat="44.86233" lon="5.11301">
        <ele>869.17</ele>
        <time>2025-02-06T10:56:23Z</time>
      </trkpt>
      <trkpt lat="44.86221" lon="5.11305">
        <ele>871.57</ele>
        <time>2025-02-06T10:56:39Z</time>
      </trkpt>
      <trkpt lat="44.86211" lon="5.11307">
        <ele>873.98</ele>
        <time>2025-02-06T10:56:52Z</time>
      </trkpt>
      <trkpt lat="44.86199" lon="5.11313">
        <ele>875.42</ele>
        <time>2025-02-06T10:57:05Z</time>
      </trkpt>
      <trkpt lat="44.86186" lon="5.1132">
        <ele>877.34</ele>
        <time>2025-02-06T10:57:21Z</time>
      </trkpt>
      <trkpt lat="44.8617" lon="5.11323">
        <ele>880.22</ele>
        <time>2025-02-06T10:57:37Z</time>
      </trkpt>
      <trkpt lat="44.86156" lon="5.1133">
        <ele>882.15</ele>
        <time>2025-02-06T10:57:51Z</time>
      </trkpt>
      <trkpt lat="44.86147" lon="5.1134">
        <ele>885.03</ele>
        <time>2025-02-06T10:58:07Z</time>
      </trkpt>
      <trkpt lat="44.86137" lon="5.11347">
        <ele>888.4</ele>
        <time>2025-02-06T10:58:22Z</time>
      </trkpt>
      <trkpt lat="44.86123" lon="5.11347">
        <ele>889.36</ele>
        <time>2025-02-06T10:58:38Z</time>
      </trkpt>
      <trkpt lat="44.86106" lon="5.11352">
        <ele>891.28</ele>
        <time>2025-02-06T10:58:55Z</time>
      </trkpt>
      <trkpt lat="44.86093" lon="5.11356">
        <ele>891.28</ele>
        <time>2025-02-06T10:59:10Z</time>
      </trkpt>
      <trkpt lat="44.8609" lon="5.11354">
        <ele>890.8</ele>
        <time>2025-02-06T10:59:41Z</time>
      </trkpt>
      <trkpt lat="44.86087" lon="5.11354">
        <ele>891.28</ele>
        <time>2025-02-06T11:00:08Z</time>
      </trkpt>
      <trkpt lat="44.86081" lon="5.11355">
        <ele>889.84</ele>
        <time>2025-02-06T11:00:49Z</time>
      </trkpt>
      <trkpt lat="44.8607" lon="5.11364">
        <ele>888.88</ele>
        <time>2025-02-06T11:01:03Z</time>
      </trkpt>
      <trkpt lat="44.86055" lon="5.11373">
        <ele>888.88</ele>
        <time>2025-02-06T11:01:20Z</time>
      </trkpt>
      <trkpt lat="44.86041" lon="5.11387">
        <ele>890.32</ele>
        <time>2025-02-06T11:01:37Z</time>
      </trkpt>
      <trkpt lat="44.8603" lon="5.11397">
        <ele>891.28</ele>
        <time>2025-02-06T11:01:52Z</time>
      </trkpt>
      <trkpt lat="44.86021" lon="5.11403">
        <ele>893.2</ele>
        <time>2025-02-06T11:02:06Z</time>
      </trkpt>
      <trkpt lat="44.86013" lon="5.11406">
        <ele>895.12</ele>
        <time>2025-02-06T11:02:17Z</time>
      </trkpt>
      <trkpt lat="44.86" lon="5.1141">
        <ele>897.05</ele>
        <time>2025-02-06T11:02:31Z</time>
      </trkpt>
      <trkpt lat="44.85988" lon="5.11414">
        <ele>899.93</ele>
        <time>2025-02-06T11:02:47Z</time>
      </trkpt>
      <trkpt lat="44.85977" lon="5.11424">
        <ele>902.82</ele>
        <time>2025-02-06T11:03:06Z</time>
      </trkpt>
      <trkpt lat="44.85969" lon="5.11429">
        <ele>905.7</ele>
        <time>2025-02-06T11:03:22Z</time>
      </trkpt>
      <trkpt lat="44.85963" lon="5.11434">
        <ele>909.06</ele>
        <time>2025-02-06T11:03:38Z</time>
      </trkpt>
      <trkpt lat="44.85954" lon="5.1143">
        <ele>911.95</ele>
        <time>2025-02-06T11:03:53Z</time>
      </trkpt>
      <trkpt lat="44.85945" lon="5.11425">
        <ele>914.35</ele>
        <time>2025-02-06T11:04:09Z</time>
      </trkpt>
      <trkpt lat="44.85939" lon="5.11423">
        <ele>914.83</ele>
        <time>2025-02-06T11:04:28Z</time>
      </trkpt>
      <trkpt lat="44.85936" lon="5.11422">
        <ele>914.83</ele>
        <time>2025-02-06T11:04:51Z</time>
      </trkpt>
      <trkpt lat="44.85923" lon="5.11426">
        <ele>916.27</ele>
        <time>2025-02-06T11:05:09Z</time>
      </trkpt>
      <trkpt lat="44.859" lon="5.11433">
        <ele>916.27</ele>
        <time>2025-02-06T11:05:28Z</time>
      </trkpt>
      <trkpt lat="44.85893" lon="5.11435">
        <ele>916.27</ele>
        <time>2025-02-06T11:05:43Z</time>
      </trkpt>
      <trkpt lat="44.85889" lon="5.11441">
        <ele>925.89</ele>
        <time>2025-02-06T12:02:37Z</time>
      </trkpt>
      <trkpt lat="44.85881" lon="5.11442">
        <ele>925.89</ele>
        <time>2025-02-06T12:02:52Z</time>
      </trkpt>
      <trkpt lat="44.85871" lon="5.11443">
        <ele>925.89</ele>
        <time>2025-02-06T12:03:06Z</time>
      </trkpt>
      <trkpt lat="44.85862" lon="5.11443">
        <ele>925.89</ele>
        <time>2025-02-06T12:03:20Z</time>
      </trkpt>
      <trkpt lat="44.85848" lon="5.11447">
        <ele>925.89</ele>
        <time>2025-02-06T12:03:36Z</time>
      </trkpt>
      <trkpt lat="44.85833" lon="5.11448">
        <ele>925.89</ele>
        <time>2025-02-06T12:03:51Z</time>
      </trkpt>
      <trkpt lat="44.85819" lon="5.11448">
        <ele>926.37</ele>
        <time>2025-02-06T12:04:06Z</time>
      </trkpt>
      <trkpt lat="44.85817" lon="5.11449">
        <ele>926.37</ele>
        <time>2025-02-06T12:04:09Z</time>
      </trkpt>
      <trkpt lat="44.85814" lon="5.11449">
        <ele>927.33</ele>
        <time>2025-02-06T12:04:12Z</time>
      </trkpt>
      <trkpt lat="44.85798" lon="5.11454">
        <ele>929.25</ele>
        <time>2025-02-06T12:04:31Z</time>
      </trkpt>
      <trkpt lat="44.85789" lon="5.11456">
        <ele>930.69</ele>
        <time>2025-02-06T12:04:40Z</time>
      </trkpt>
      <trkpt lat="44.85779" lon="5.11454">
        <ele>932.14</ele>
        <time>2025-02-06T12:04:49Z</time>
      </trkpt>
      <trkpt lat="44.85772" lon="5.11453">
        <ele>933.1</ele>
        <time>2025-02-06T12:04:56Z</time>
      </trkpt>
      <trkpt lat="44.85761" lon="5.11445">
        <ele>933.58</ele>
        <time>2025-02-06T12:05:12Z</time>
      </trkpt>
      <trkpt lat="44.85756" lon="5.11441">
        <ele>933.58</ele>
        <time>2025-02-06T12:05:26Z</time>
      </trkpt>
      <trkpt lat="44.85751" lon="5.1144">
        <ele>933.58</ele>
        <time>2025-02-06T12:05:38Z</time>
      </trkpt>
      <trkpt lat="44.85749" lon="5.11438">
        <ele>933.58</ele>
        <time>2025-02-06T12:05:51Z</time>
      </trkpt>
      <trkpt lat="44.8574" lon="5.11437">
        <ele>932.62</ele>
        <time>2025-02-06T12:06:05Z</time>
      </trkpt>
      <trkpt lat="44.85728" lon="5.11436">
        <ele>931.17</ele>
        <time>2025-02-06T12:06:19Z</time>
      </trkpt>
      <trkpt lat="44.85718" lon="5.11436">
        <ele>930.21</ele>
        <time>2025-02-06T12:06:34Z</time>
      </trkpt>
      <trkpt lat="44.85711" lon="5.11431">
        <ele>928.77</ele>
        <time>2025-02-06T12:06:48Z</time>
      </trkpt>
      <trkpt lat="44.85702" lon="5.11427">
        <ele>927.33</ele>
        <time>2025-02-06T12:07:01Z</time>
      </trkpt>
      <trkpt lat="44.85692" lon="5.11422">
        <ele>925.41</ele>
        <time>2025-02-06T12:07:13Z</time>
      </trkpt>
      <trkpt lat="44.85687" lon="5.1142">
        <ele>924.45</ele>
        <time>2025-02-06T12:07:21Z</time>
      </trkpt>
      <trkpt lat="44.85677" lon="5.11408">
        <ele>921.56</ele>
        <time>2025-02-06T12:07:33Z</time>
      </trkpt>
      <trkpt lat="44.85663" lon="5.11395">
        <ele>920.12</ele>
        <time>2025-02-06T12:07:48Z</time>
      </trkpt>
      <trkpt lat="44.8565" lon="5.11387">
        <ele>918.68</ele>
        <time>2025-02-06T12:08:03Z</time>
      </trkpt>
      <trkpt lat="44.85636" lon="5.11373">
        <ele>917.72</ele>
        <time>2025-02-06T12:08:17Z</time>
      </trkpt>
      <trkpt lat="44.85627" lon="5.11357">
        <ele>914.35</ele>
        <time>2025-02-06T12:08:31Z</time>
      </trkpt>
      <trkpt lat="44.85617" lon="5.11343">
        <ele>911.95</ele>
        <time>2025-02-06T12:08:44Z</time>
      </trkpt>
      <trkpt lat="44.85612" lon="5.11337">
        <ele>910.99</ele>
        <time>2025-02-06T12:08:51Z</time>
      </trkpt>
      <trkpt lat="44.85602" lon="5.11323">
        <ele>908.58</ele>
        <time>2025-02-06T12:09:06Z</time>
      </trkpt>
      <trkpt lat="44.85591" lon="5.11316">
        <ele>907.62</ele>
        <time>2025-02-06T12:09:17Z</time>
      </trkpt>
      <trkpt lat="44.85584" lon="5.11307">
        <ele>904.26</ele>
        <time>2025-02-06T12:09:30Z</time>
      </trkpt>
      <trkpt lat="44.85579" lon="5.11298">
        <ele>901.37</ele>
        <time>2025-02-06T12:09:48Z</time>
      </trkpt>
      <trkpt lat="44.85573" lon="5.11292">
        <ele>898.01</ele>
        <time>2025-02-06T12:09:58Z</time>
      </trkpt>
      <trkpt lat="44.85565" lon="5.11289">
        <ele>894.64</ele>
        <time>2025-02-06T12:10:08Z</time>
      </trkpt>
      <trkpt lat="44.85563" lon="5.1129">
        <ele>894.16</ele>
        <time>2025-02-06T12:10:10Z</time>
      </trkpt>
      <trkpt lat="44.8555" lon="5.11286">
        <ele>891.28</ele>
        <time>2025-02-06T12:10:25Z</time>
      </trkpt>
      <trkpt lat="44.85547" lon="5.11287">
        <ele>889.36</ele>
        <time>2025-02-06T12:10:38Z</time>
      </trkpt>
      <trkpt lat="44.85539" lon="5.11288">
        <ele>888.4</ele>
        <time>2025-02-06T12:10:55Z</time>
      </trkpt>
      <trkpt lat="44.85526" lon="5.11286">
        <ele>887.91</ele>
        <time>2025-02-06T12:11:10Z</time>
      </trkpt>
      <trkpt lat="44.85516" lon="5.1128">
        <ele>885.51</ele>
        <time>2025-02-06T12:11:20Z</time>
      </trkpt>
      <trkpt lat="44.85504" lon="5.11276">
        <ele>884.55</ele>
        <time>2025-02-06T12:11:35Z</time>
      </trkpt>
      <trkpt lat="44.85495" lon="5.11274">
        <ele>884.55</ele>
        <time>2025-02-06T12:11:48Z</time>
      </trkpt>
      <trkpt lat="44.85489" lon="5.11272">
        <ele>885.03</ele>
        <time>2025-02-06T12:11:54Z</time>
      </trkpt>
      <trkpt lat="44.85486" lon="5.11268">
        <ele>883.59</ele>
        <time>2025-02-06T12:11:57Z</time>
      </trkpt>
      <trkpt lat="44.85477" lon="5.11255">
        <ele>879.74</ele>
        <time>2025-02-06T12:12:10Z</time>
      </trkpt>
      <trkpt lat="44.85472" lon="5.11237">
        <ele>876.38</ele>
        <time>2025-02-06T12:12:22Z</time>
      </trkpt>
      <trkpt lat="44.85471" lon="5.11234">
        <ele>876.38</ele>
        <time>2025-02-06T12:12:24Z</time>
      </trkpt>
      <trkpt lat="44.85467" lon="5.11212">
        <ele>874.94</ele>
        <time>2025-02-06T12:12:37Z</time>
      </trkpt>
      <trkpt lat="44.85468" lon="5.11198">
        <ele>873.01</ele>
        <time>2025-02-06T12:12:49Z</time>
      </trkpt>
      <trkpt lat="44.85468" lon="5.11181">
        <ele>869.17</ele>
        <time>2025-02-06T12:13:03Z</time>
      </trkpt>
      <trkpt lat="44.85464" lon="5.11166">
        <ele>865.8</ele>
        <time>2025-02-06T12:13:17Z</time>
      </trkpt>
      <trkpt lat="44.85463" lon="5.11139">
        <ele>863.88</ele>
        <time>2025-02-06T12:13:31Z</time>
      </trkpt>
      <trkpt lat="44.85466" lon="5.11123">
        <ele>860.52</ele>
        <time>2025-02-06T12:13:41Z</time>
      </trkpt>
      <trkpt lat="44.85468" lon="5.11106">
        <ele>858.59</ele>
        <time>2025-02-06T12:13:53Z</time>
      </trkpt>
      <trkpt lat="44.85467" lon="5.11089">
        <ele>854.75</ele>
        <time>2025-02-06T12:14:04Z</time>
      </trkpt>
      <trkpt lat="44.85466" lon="5.11075">
        <ele>851.38</ele>
        <time>2025-02-06T12:14:14Z</time>
      </trkpt>
      <trkpt lat="44.85467" lon="5.11063">
        <ele>848.5</ele>
        <time>2025-02-06T12:14:24Z</time>
      </trkpt>
      <trkpt lat="44.85469" lon="5.11049">
        <ele>845.14</ele>
        <time>2025-02-06T12:14:33Z</time>
      </trkpt>
      <trkpt lat="44.85468" lon="5.11031">
        <ele>844.18</ele>
        <time>2025-02-06T12:14:45Z</time>
      </trkpt>
      <trkpt lat="44.85464" lon="5.11017">
        <ele>843.21</ele>
        <time>2025-02-06T12:14:58Z</time>
      </trkpt>
      <trkpt lat="44.85462" lon="5.11007">
        <ele>841.77</ele>
        <time>2025-02-06T12:15:10Z</time>
      </trkpt>
      <trkpt lat="44.85459" lon="5.10989">
        <ele>838.41</ele>
        <time>2025-02-06T12:15:25Z</time>
      </trkpt>
      <trkpt lat="44.85453" lon="5.10972">
        <ele>837.93</ele>
        <time>2025-02-06T12:15:38Z</time>
      </trkpt>
      <trkpt lat="44.85449" lon="5.10965">
        <ele>837.45</ele>
        <time>2025-02-06T12:15:53Z</time>
      </trkpt>
      <trkpt lat="44.85446" lon="5.10957">
        <ele>836</ele>
        <time>2025-02-06T12:16:09Z</time>
      </trkpt>
      <trkpt lat="44.85449" lon="5.10942">
        <ele>835.52</ele>
        <time>2025-02-06T12:16:20Z</time>
      </trkpt>
      <trkpt lat="44.8545" lon="5.10925">
        <ele>834.56</ele>
        <time>2025-02-06T12:16:32Z</time>
      </trkpt>
      <trkpt lat="44.85454" lon="5.10916">
        <ele>834.08</ele>
        <time>2025-02-06T12:16:40Z</time>
      </trkpt>
      <trkpt lat="44.85454" lon="5.10913">
        <ele>834.08</ele>
        <time>2025-02-06T12:16:42Z</time>
      </trkpt>
      <trkpt lat="44.85457" lon="5.10889">
        <ele>833.6</ele>
        <time>2025-02-06T12:16:56Z</time>
      </trkpt>
      <trkpt lat="44.85456" lon="5.10885">
        <ele>835.04</ele>
        <time>2025-02-06T12:17:00Z</time>
      </trkpt>
      <trkpt lat="44.85455" lon="5.10862">
        <ele>837.45</ele>
        <time>2025-02-06T12:17:16Z</time>
      </trkpt>
      <trkpt lat="44.85454" lon="5.10852">
        <ele>835.52</ele>
        <time>2025-02-06T12:17:26Z</time>
      </trkpt>
      <trkpt lat="44.85449" lon="5.10854">
        <ele>836.48</ele>
        <time>2025-02-06T12:19:03Z</time>
      </trkpt>
      <trkpt lat="44.85437" lon="5.10862">
        <ele>839.37</ele>
        <time>2025-02-06T12:19:19Z</time>
      </trkpt>
      <trkpt lat="44.85427" lon="5.1087">
        <ele>841.29</ele>
        <time>2025-02-06T12:19:31Z</time>
      </trkpt>
      <trkpt lat="44.85422" lon="5.10873">
        <ele>842.25</ele>
        <time>2025-02-06T12:19:36Z</time>
      </trkpt>
      <trkpt lat="44.85407" lon="5.1088">
        <ele>844.66</ele>
        <time>2025-02-06T12:19:51Z</time>
      </trkpt>
      <trkpt lat="44.85397" lon="5.10885">
        <ele>846.58</ele>
        <time>2025-02-06T12:20:03Z</time>
      </trkpt>
      <trkpt lat="44.85385" lon="5.10893">
        <ele>848.98</ele>
        <time>2025-02-06T12:20:17Z</time>
      </trkpt>
      <trkpt lat="44.85372" lon="5.10899">
        <ele>850.9</ele>
        <time>2025-02-06T12:20:30Z</time>
      </trkpt>
      <trkpt lat="44.85369" lon="5.10899">
        <ele>851.87</ele>
        <time>2025-02-06T12:20:35Z</time>
      </trkpt>
      <trkpt lat="44.85362" lon="5.10903">
        <ele>852.83</ele>
        <time>2025-02-06T12:20:43Z</time>
      </trkpt>
      <trkpt lat="44.85349" lon="5.10907">
        <ele>855.23</ele>
        <time>2025-02-06T12:20:58Z</time>
      </trkpt>
      <trkpt lat="44.85337" lon="5.10907">
        <ele>857.63</ele>
        <time>2025-02-06T12:21:11Z</time>
      </trkpt>
      <trkpt lat="44.85327" lon="5.10899">
        <ele>859.56</ele>
        <time>2025-02-06T12:21:25Z</time>
      </trkpt>
      <trkpt lat="44.85313" lon="5.10891">
        <ele>861.96</ele>
        <time>2025-02-06T12:21:40Z</time>
      </trkpt>
      <trkpt lat="44.85301" lon="5.10888">
        <ele>863.4</ele>
        <time>2025-02-06T12:21:53Z</time>
      </trkpt>
      <trkpt lat="44.85286" lon="5.10885">
        <ele>865.8</ele>
        <time>2025-02-06T12:22:08Z</time>
      </trkpt>
      <trkpt lat="44.85273" lon="5.10882">
        <ele>868.21</ele>
        <time>2025-02-06T12:22:22Z</time>
      </trkpt>
      <trkpt lat="44.85262" lon="5.10872">
        <ele>870.13</ele>
        <time>2025-02-06T12:22:36Z</time>
      </trkpt>
      <trkpt lat="44.85252" lon="5.10863">
        <ele>871.57</ele>
        <time>2025-02-06T12:22:50Z</time>
      </trkpt>
      <trkpt lat="44.85236" lon="5.10855">
        <ele>872.05</ele>
        <time>2025-02-06T12:23:04Z</time>
      </trkpt>
      <trkpt lat="44.85222" lon="5.10849">
        <ele>870.61</ele>
        <time>2025-02-06T12:23:20Z</time>
      </trkpt>
      <trkpt lat="44.85218" lon="5.10845">
        <ele>869.65</ele>
        <time>2025-02-06T12:23:33Z</time>
      </trkpt>
      <trkpt lat="44.85214" lon="5.10838">
        <ele>868.69</ele>
        <time>2025-02-06T12:23:44Z</time>
      </trkpt>
      <trkpt lat="44.85206" lon="5.10827">
        <ele>868.69</ele>
        <time>2025-02-06T12:23:59Z</time>
      </trkpt>
      <trkpt lat="44.85201" lon="5.10828">
        <ele>868.21</ele>
        <time>2025-02-06T12:24:05Z</time>
      </trkpt>
      <trkpt lat="44.85191" lon="5.10831">
        <ele>869.65</ele>
        <time>2025-02-06T12:24:16Z</time>
      </trkpt>
      <trkpt lat="44.8519" lon="5.10842">
        <ele>872.05</ele>
        <time>2025-02-06T12:24:28Z</time>
      </trkpt>
      <trkpt lat="44.85189" lon="5.10853">
        <ele>875.9</ele>
        <time>2025-02-06T12:24:41Z</time>
      </trkpt>
      <trkpt lat="44.85187" lon="5.10862">
        <ele>877.34</ele>
        <time>2025-02-06T12:24:53Z</time>
      </trkpt>
      <trkpt lat="44.85177" lon="5.10868">
        <ele>878.78</ele>
        <time>2025-02-06T12:25:08Z</time>
      </trkpt>
      <trkpt lat="44.85166" lon="5.10868">
        <ele>879.74</ele>
        <time>2025-02-06T12:25:24Z</time>
      </trkpt>
      <trkpt lat="44.85157" lon="5.10872">
        <ele>881.19</ele>
        <time>2025-02-06T12:25:38Z</time>
      </trkpt>
      <trkpt lat="44.85142" lon="5.10878">
        <ele>882.63</ele>
        <time>2025-02-06T12:25:53Z</time>
      </trkpt>
      <trkpt lat="44.85139" lon="5.10879">
        <ele>882.63</ele>
        <time>2025-02-06T12:25:56Z</time>
      </trkpt>
      <trkpt lat="44.85125" lon="5.1088">
        <ele>884.55</ele>
        <time>2025-02-06T12:26:10Z</time>
      </trkpt>
      <trkpt lat="44.8511" lon="5.10875">
        <ele>885.51</ele>
        <time>2025-02-06T12:26:24Z</time>
      </trkpt>
      <trkpt lat="44.85096" lon="5.10862">
        <ele>888.4</ele>
        <time>2025-02-06T12:26:40Z</time>
      </trkpt>
      <trkpt lat="44.85088" lon="5.10849">
        <ele>890.32</ele>
        <time>2025-02-06T12:26:53Z</time>
      </trkpt>
      <trkpt lat="44.8508" lon="5.10835">
        <ele>892.72</ele>
        <time>2025-02-06T12:27:07Z</time>
      </trkpt>
      <trkpt lat="44.85072" lon="5.10825">
        <ele>895.61</ele>
        <time>2025-02-06T12:27:20Z</time>
      </trkpt>
      <trkpt lat="44.85063" lon="5.10815">
        <ele>898.49</ele>
        <time>2025-02-06T12:27:35Z</time>
      </trkpt>
      <trkpt lat="44.8506" lon="5.10813">
        <ele>899.45</ele>
        <time>2025-02-06T12:27:40Z</time>
      </trkpt>
      <trkpt lat="44.85047" lon="5.10812">
        <ele>902.33</ele>
        <time>2025-02-06T12:27:56Z</time>
      </trkpt>
      <trkpt lat="44.85037" lon="5.10812">
        <ele>903.78</ele>
        <time>2025-02-06T12:28:07Z</time>
      </trkpt>
      <trkpt lat="44.85033" lon="5.10812">
        <ele>904.74</ele>
        <time>2025-02-06T12:28:11Z</time>
      </trkpt>
      <trkpt lat="44.85021" lon="5.10813">
        <ele>906.66</ele>
        <time>2025-02-06T12:28:26Z</time>
      </trkpt>
      <trkpt lat="44.85011" lon="5.10818">
        <ele>908.1</ele>
        <time>2025-02-06T12:28:42Z</time>
      </trkpt>
      <trkpt lat="44.85002" lon="5.10821">
        <ele>909.54</ele>
        <time>2025-02-06T12:28:59Z</time>
      </trkpt>
      <trkpt lat="44.84994" lon="5.10823">
        <ele>910.51</ele>
        <time>2025-02-06T12:29:17Z</time>
      </trkpt>
      <trkpt lat="44.84983" lon="5.10829">
        <ele>911.47</ele>
        <time>2025-02-06T12:29:34Z</time>
      </trkpt>
      <trkpt lat="44.84968" lon="5.10835">
        <ele>912.43</ele>
        <time>2025-02-06T12:29:53Z</time>
      </trkpt>
      <trkpt lat="44.84962" lon="5.10837">
        <ele>912.43</ele>
        <time>2025-02-06T12:30:01Z</time>
      </trkpt>
      <trkpt lat="44.84946" lon="5.10846">
        <ele>913.39</ele>
        <time>2025-02-06T12:30:18Z</time>
      </trkpt>
      <trkpt lat="44.84935" lon="5.10852">
        <ele>914.35</ele>
        <time>2025-02-06T12:30:33Z</time>
      </trkpt>
      <trkpt lat="44.84918" lon="5.1086">
        <ele>915.79</ele>
        <time>2025-02-06T12:30:49Z</time>
      </trkpt>
      <trkpt lat="44.84903" lon="5.10867">
        <ele>917.24</ele>
        <time>2025-02-06T12:31:02Z</time>
      </trkpt>
      <trkpt lat="44.84887" lon="5.1088">
        <ele>918.2</ele>
        <time>2025-02-06T12:31:19Z</time>
      </trkpt>
      <trkpt lat="44.8488" lon="5.1089">
        <ele>918.2</ele>
        <time>2025-02-06T12:31:29Z</time>
      </trkpt>
      <trkpt lat="44.84869" lon="5.10895">
        <ele>918.2</ele>
        <time>2025-02-06T12:31:44Z</time>
      </trkpt>
      <trkpt lat="44.84865" lon="5.10892">
        <ele>918.2</ele>
        <time>2025-02-06T12:31:59Z</time>
      </trkpt>
      <trkpt lat="44.84864" lon="5.1089">
        <ele>918.2</ele>
        <time>2025-02-06T12:32:01Z</time>
      </trkpt>
      <trkpt lat="44.8485" lon="5.10873">
        <ele>918.2</ele>
        <time>2025-02-06T12:32:17Z</time>
      </trkpt>
      <trkpt lat="44.84845" lon="5.10864">
        <ele>915.31</ele>
        <time>2025-02-06T12:32:31Z</time>
      </trkpt>
      <trkpt lat="44.84844" lon="5.10862">
        <ele>916.75</ele>
        <time>2025-02-06T12:32:34Z</time>
      </trkpt>
      <trkpt lat="44.84839" lon="5.1086">
        <ele>916.75</ele>
        <time>2025-02-06T12:32:42Z</time>
      </trkpt>
      <trkpt lat="44.84825" lon="5.10846">
        <ele>917.72</ele>
        <time>2025-02-06T12:32:58Z</time>
      </trkpt>
      <trkpt lat="44.84808" lon="5.10826">
        <ele>918.2</ele>
        <time>2025-02-06T12:33:16Z</time>
      </trkpt>
      <trkpt lat="44.84796" lon="5.10807">
        <ele>918.68</ele>
        <time>2025-02-06T12:33:32Z</time>
      </trkpt>
      <trkpt lat="44.84792" lon="5.1079">
        <ele>919.64</ele>
        <time>2025-02-06T12:33:44Z</time>
      </trkpt>
      <trkpt lat="44.84793" lon="5.10787">
        <ele>919.64</ele>
        <time>2025-02-06T12:33:46Z</time>
      </trkpt>
      <trkpt lat="44.84793" lon="5.10779">
        <ele>920.12</ele>
        <time>2025-02-06T12:33:51Z</time>
      </trkpt>
      <trkpt lat="44.8479" lon="5.10769">
        <ele>921.08</ele>
        <time>2025-02-06T12:33:59Z</time>
      </trkpt>
      <trkpt lat="44.84778" lon="5.10748">
        <ele>922.52</ele>
        <time>2025-02-06T12:34:16Z</time>
      </trkpt>
      <trkpt lat="44.84765" lon="5.10729">
        <ele>924.93</ele>
        <time>2025-02-06T12:34:33Z</time>
      </trkpt>
      <trkpt lat="44.84754" lon="5.10712">
        <ele>926.85</ele>
        <time>2025-02-06T12:34:48Z</time>
      </trkpt>
      <trkpt lat="44.84736" lon="5.10702">
        <ele>928.77</ele>
        <time>2025-02-06T12:35:04Z</time>
      </trkpt>
      <trkpt lat="44.84716" lon="5.10696">
        <ele>929.73</ele>
        <time>2025-02-06T12:35:20Z</time>
      </trkpt>
      <trkpt lat="44.84693" lon="5.10684">
        <ele>930.69</ele>
        <time>2025-02-06T12:35:39Z</time>
      </trkpt>
      <trkpt lat="44.84676" lon="5.10674">
        <ele>931.17</ele>
        <time>2025-02-06T12:35:55Z</time>
      </trkpt>
      <trkpt lat="44.84654" lon="5.10661">
        <ele>931.17</ele>
        <time>2025-02-06T12:36:13Z</time>
      </trkpt>
      <trkpt lat="44.8463" lon="5.10647">
        <ele>930.69</ele>
        <time>2025-02-06T12:36:34Z</time>
      </trkpt>
      <trkpt lat="44.84613" lon="5.10635">
        <ele>929.73</ele>
        <time>2025-02-06T12:36:48Z</time>
      </trkpt>
      <trkpt lat="44.84591" lon="5.10619">
        <ele>927.81</ele>
        <time>2025-02-06T12:37:08Z</time>
      </trkpt>
      <trkpt lat="44.8457" lon="5.10607">
        <ele>927.33</ele>
        <time>2025-02-06T12:37:25Z</time>
      </trkpt>
      <trkpt lat="44.8455" lon="5.10594">
        <ele>927.33</ele>
        <time>2025-02-06T12:37:42Z</time>
      </trkpt>
      <trkpt lat="44.84566" lon="5.10573">
        <ele>927.33</ele>
        <time>2025-02-06T12:42:03Z</time>
      </trkpt>
      <trkpt lat="44.84582" lon="5.1057">
        <ele>926.37</ele>
        <time>2025-02-06T12:42:17Z</time>
      </trkpt>
      <trkpt lat="44.84585" lon="5.10569">
        <ele>925.41</ele>
        <time>2025-02-06T12:42:19Z</time>
      </trkpt>
      <trkpt lat="44.84599" lon="5.10565">
        <ele>924.45</ele>
        <time>2025-02-06T12:42:32Z</time>
      </trkpt>
      <trkpt lat="44.84604" lon="5.10563">
        <ele>926.37</ele>
        <time>2025-02-06T12:42:36Z</time>
      </trkpt>
      <trkpt lat="44.8461" lon="5.10559">
        <ele>924.93</ele>
        <time>2025-02-06T12:42:41Z</time>
      </trkpt>
      <trkpt lat="44.84613" lon="5.10559">
        <ele>924.93</ele>
        <time>2025-02-06T12:42:44Z</time>
      </trkpt>
      <trkpt lat="44.84619" lon="5.1056">
        <ele>924.45</ele>
        <time>2025-02-06T12:42:48Z</time>
      </trkpt>
      <trkpt lat="44.84641" lon="5.10559">
        <ele>923.48</ele>
        <time>2025-02-06T12:43:04Z</time>
      </trkpt>
      <trkpt lat="44.84652" lon="5.10555">
        <ele>921.08</ele>
        <time>2025-02-06T12:43:14Z</time>
      </trkpt>
      <trkpt lat="44.84673" lon="5.10549">
        <ele>919.16</ele>
        <time>2025-02-06T12:43:31Z</time>
      </trkpt>
      <trkpt lat="44.84691" lon="5.10535">
        <ele>916.27</ele>
        <time>2025-02-06T12:43:47Z</time>
      </trkpt>
      <trkpt lat="44.84708" lon="5.10529">
        <ele>912.43</ele>
        <time>2025-02-06T12:44:01Z</time>
      </trkpt>
      <trkpt lat="44.84726" lon="5.10516">
        <ele>908.58</ele>
        <time>2025-02-06T12:44:17Z</time>
      </trkpt>
      <trkpt lat="44.84732" lon="5.10512">
        <ele>910.03</ele>
        <time>2025-02-06T12:44:22Z</time>
      </trkpt>
      <trkpt lat="44.84737" lon="5.10509">
        <ele>908.58</ele>
        <time>2025-02-06T12:44:26Z</time>
      </trkpt>
      <trkpt lat="44.84753" lon="5.10502">
        <ele>905.22</ele>
        <time>2025-02-06T12:44:39Z</time>
      </trkpt>
      <trkpt lat="44.84759" lon="5.10496">
        <ele>904.26</ele>
        <time>2025-02-06T12:44:45Z</time>
      </trkpt>
      <trkpt lat="44.84762" lon="5.10491">
        <ele>903.3</ele>
        <time>2025-02-06T12:44:49Z</time>
      </trkpt>
      <trkpt lat="44.84774" lon="5.10465">
        <ele>900.41</ele>
        <time>2025-02-06T12:45:07Z</time>
      </trkpt>
      <trkpt lat="44.84784" lon="5.10439">
        <ele>897.53</ele>
        <time>2025-02-06T12:45:25Z</time>
      </trkpt>
      <trkpt lat="44.84792" lon="5.1042">
        <ele>895.12</ele>
        <time>2025-02-06T12:45:38Z</time>
      </trkpt>
      <trkpt lat="44.84802" lon="5.10397">
        <ele>892.72</ele>
        <time>2025-02-06T12:45:53Z</time>
      </trkpt>
      <trkpt lat="44.84808" lon="5.10388">
        <ele>891.28</ele>
        <time>2025-02-06T12:45:59Z</time>
      </trkpt>
      <trkpt lat="44.84813" lon="5.10367">
        <ele>888.4</ele>
        <time>2025-02-06T12:46:14Z</time>
      </trkpt>
      <trkpt lat="44.8482" lon="5.10337">
        <ele>885.99</ele>
        <time>2025-02-06T12:46:30Z</time>
      </trkpt>
      <trkpt lat="44.84827" lon="5.10312">
        <ele>883.11</ele>
        <time>2025-02-06T12:46:44Z</time>
      </trkpt>
      <trkpt lat="44.84831" lon="5.10298">
        <ele>880.71</ele>
        <time>2025-02-06T12:46:57Z</time>
      </trkpt>
      <trkpt lat="44.84835" lon="5.10284">
        <ele>878.78</ele>
        <time>2025-02-06T12:47:08Z</time>
      </trkpt>
      <trkpt lat="44.84842" lon="5.10261">
        <ele>875.9</ele>
        <time>2025-02-06T12:47:23Z</time>
      </trkpt>
      <trkpt lat="44.84853" lon="5.10238">
        <ele>872.53</ele>
        <time>2025-02-06T12:47:39Z</time>
      </trkpt>
      <trkpt lat="44.84855" lon="5.10233">
        <ele>871.57</ele>
        <time>2025-02-06T12:47:42Z</time>
      </trkpt>
      <trkpt lat="44.84858" lon="5.10227">
        <ele>870.61</ele>
        <time>2025-02-06T12:47:47Z</time>
      </trkpt>
      <trkpt lat="44.84861" lon="5.10226">
        <ele>870.13</ele>
        <time>2025-02-06T12:48:01Z</time>
      </trkpt>
      <trkpt lat="44.84863" lon="5.10207">
        <ele>866.77</ele>
        <time>2025-02-06T12:48:13Z</time>
      </trkpt>
      <trkpt lat="44.8486" lon="5.10182">
        <ele>863.4</ele>
        <time>2025-02-06T12:48:28Z</time>
      </trkpt>
      <trkpt lat="44.84856" lon="5.10156">
        <ele>860.52</ele>
        <time>2025-02-06T12:48:43Z</time>
      </trkpt>
      <trkpt lat="44.84851" lon="5.10135">
        <ele>857.63</ele>
        <time>2025-02-06T12:49:00Z</time>
      </trkpt>
      <trkpt lat="44.84839" lon="5.10113">
        <ele>854.27</ele>
        <time>2025-02-06T12:49:16Z</time>
      </trkpt>
      <trkpt lat="44.8484" lon="5.10109">
        <ele>854.27</ele>
        <time>2025-02-06T12:49:30Z</time>
      </trkpt>
      <trkpt lat="44.84841" lon="5.10106">
        <ele>852.83</ele>
        <time>2025-02-06T12:49:46Z</time>
      </trkpt>
      <trkpt lat="44.84841" lon="5.10102">
        <ele>852.35</ele>
        <time>2025-02-06T12:50:33Z</time>
      </trkpt>
      <trkpt lat="44.84839" lon="5.10095">
        <ele>851.38</ele>
        <time>2025-02-06T12:50:46Z</time>
      </trkpt>
      <trkpt lat="44.84837" lon="5.10088">
        <ele>850.42</ele>
        <time>2025-02-06T12:51:00Z</time>
      </trkpt>
      <trkpt lat="44.84832" lon="5.10078">
        <ele>848.98</ele>
        <time>2025-02-06T12:51:14Z</time>
      </trkpt>
      <trkpt lat="44.84831" lon="5.10075">
        <ele>848.02</ele>
        <time>2025-02-06T12:51:28Z</time>
      </trkpt>
      <trkpt lat="44.84824" lon="5.10065">
        <ele>846.58</ele>
        <time>2025-02-06T12:51:44Z</time>
      </trkpt>
      <trkpt lat="44.8482" lon="5.10055">
        <ele>844.66</ele>
        <time>2025-02-06T12:51:57Z</time>
      </trkpt>
      <trkpt lat="44.84819" lon="5.10044">
        <ele>843.69</ele>
        <time>2025-02-06T12:52:09Z</time>
      </trkpt>
      <trkpt lat="44.8481" lon="5.10023">
        <ele>840.81</ele>
        <time>2025-02-06T12:52:24Z</time>
      </trkpt>
      <trkpt lat="44.84804" lon="5.10008">
        <ele>837.45</ele>
        <time>2025-02-06T12:52:38Z</time>
      </trkpt>
      <trkpt lat="44.84802" lon="5.10002">
        <ele>835.52</ele>
        <time>2025-02-06T12:52:51Z</time>
      </trkpt>
      <trkpt lat="44.84799" lon="5.09988">
        <ele>833.6</ele>
        <time>2025-02-06T12:53:03Z</time>
      </trkpt>
      <trkpt lat="44.84798" lon="5.09987">
        <ele>833.6</ele>
        <time>2025-02-06T12:53:04Z</time>
      </trkpt>
      <trkpt lat="44.84795" lon="5.09968">
        <ele>830.24</ele>
        <time>2025-02-06T12:53:15Z</time>
      </trkpt>
      <trkpt lat="44.84794" lon="5.09962">
        <ele>829.76</ele>
        <time>2025-02-06T12:53:18Z</time>
      </trkpt>
      <trkpt lat="44.84794" lon="5.09956">
        <ele>827.83</ele>
        <time>2025-02-06T12:53:22Z</time>
      </trkpt>
      <trkpt lat="44.84791" lon="5.09941">
        <ele>824.95</ele>
        <time>2025-02-06T12:53:31Z</time>
      </trkpt>
      <trkpt lat="44.8479" lon="5.09916">
        <ele>821.58</ele>
        <time>2025-02-06T12:53:44Z</time>
      </trkpt>
      <trkpt lat="44.84786" lon="5.09896">
        <ele>817.74</ele>
        <time>2025-02-06T12:53:55Z</time>
      </trkpt>
      <trkpt lat="44.84781" lon="5.09877">
        <ele>814.37</ele>
        <time>2025-02-06T12:54:06Z</time>
      </trkpt>
      <trkpt lat="44.84774" lon="5.09858">
        <ele>810.53</ele>
        <time>2025-02-06T12:54:20Z</time>
      </trkpt>
      <trkpt lat="44.84774" lon="5.09847">
        <ele>808.61</ele>
        <time>2025-02-06T12:54:34Z</time>
      </trkpt>
      <trkpt lat="44.84773" lon="5.09837">
        <ele>807.64</ele>
        <time>2025-02-06T12:54:51Z</time>
      </trkpt>
      <trkpt lat="44.84772" lon="5.0983">
        <ele>806.2</ele>
        <time>2025-02-06T12:54:56Z</time>
      </trkpt>
      <trkpt lat="44.84781" lon="5.0981">
        <ele>802.36</ele>
        <time>2025-02-06T12:55:11Z</time>
      </trkpt>
      <trkpt lat="44.84787" lon="5.09797">
        <ele>799.95</ele>
        <time>2025-02-06T12:55:26Z</time>
      </trkpt>
      <trkpt lat="44.84786" lon="5.09792">
        <ele>798.51</ele>
        <time>2025-02-06T12:55:33Z</time>
      </trkpt>
      <trkpt lat="44.84784" lon="5.09792">
        <ele>798.51</ele>
        <time>2025-02-06T12:55:36Z</time>
      </trkpt>
      <trkpt lat="44.84778" lon="5.0978">
        <ele>795.15</ele>
        <time>2025-02-06T12:55:48Z</time>
      </trkpt>
      <trkpt lat="44.84776" lon="5.09767">
        <ele>791.78</ele>
        <time>2025-02-06T12:55:59Z</time>
      </trkpt>
      <trkpt lat="44.84779" lon="5.09759">
        <ele>790.82</ele>
        <time>2025-02-06T12:56:06Z</time>
      </trkpt>
      <trkpt lat="44.84788" lon="5.09747">
        <ele>786.98</ele>
        <time>2025-02-06T12:56:20Z</time>
      </trkpt>
      <trkpt lat="44.84786" lon="5.09746">
        <ele>786.5</ele>
        <time>2025-02-06T12:56:57Z</time>
      </trkpt>
      <trkpt lat="44.84779" lon="5.09741">
        <ele>785.05</ele>
        <time>2025-02-06T12:57:04Z</time>
      </trkpt>
      <trkpt lat="44.84776" lon="5.09726">
        <ele>782.65</ele>
        <time>2025-02-06T12:57:16Z</time>
      </trkpt>
      <trkpt lat="44.84786" lon="5.09712">
        <ele>779.29</ele>
        <time>2025-02-06T12:57:30Z</time>
      </trkpt>
      <trkpt lat="44.848" lon="5.09695">
        <ele>776.4</ele>
        <time>2025-02-06T12:57:45Z</time>
      </trkpt>
      <trkpt lat="44.84817" lon="5.09674">
        <ele>773.52</ele>
        <time>2025-02-06T12:58:02Z</time>
      </trkpt>
      <trkpt lat="44.84834" lon="5.09656">
        <ele>771.6</ele>
        <time>2025-02-06T12:58:18Z</time>
      </trkpt>
      <trkpt lat="44.8485" lon="5.09637">
        <ele>770.15</ele>
        <time>2025-02-06T12:58:35Z</time>
      </trkpt>
      <trkpt lat="44.84862" lon="5.09623">
        <ele>768.23</ele>
        <time>2025-02-06T12:58:49Z</time>
      </trkpt>
      <trkpt lat="44.84862" lon="5.09621">
        <ele>767.75</ele>
        <time>2025-02-06T12:58:50Z</time>
      </trkpt>
      <trkpt lat="44.84879" lon="5.09606">
        <ele>765.83</ele>
        <time>2025-02-06T12:59:06Z</time>
      </trkpt>
      <trkpt lat="44.84903" lon="5.09603">
        <ele>765.35</ele>
        <time>2025-02-06T12:59:24Z</time>
      </trkpt>
      <trkpt lat="44.8492" lon="5.09604">
        <ele>765.35</ele>
        <time>2025-02-06T12:59:40Z</time>
      </trkpt>
      <trkpt lat="44.84936" lon="5.09603">
        <ele>765.35</ele>
        <time>2025-02-06T12:59:55Z</time>
      </trkpt>
      <trkpt lat="44.84945" lon="5.09604">
        <ele>765.35</ele>
        <time>2025-02-06T13:00:03Z</time>
      </trkpt>
      <trkpt lat="44.84963" lon="5.09587">
        <ele>765.35</ele>
        <time>2025-02-06T13:00:20Z</time>
      </trkpt>
      <trkpt lat="44.8498" lon="5.09565">
        <ele>763.9</ele>
        <time>2025-02-06T13:00:38Z</time>
      </trkpt>
      <trkpt lat="44.8499" lon="5.0954">
        <ele>761.5</ele>
        <time>2025-02-06T13:00:55Z</time>
      </trkpt>
      <trkpt lat="44.84988" lon="5.09503">
        <ele>759.1</ele>
        <time>2025-02-06T13:01:15Z</time>
      </trkpt>
      <trkpt lat="44.84986" lon="5.09469">
        <ele>756.21</ele>
        <time>2025-02-06T13:01:33Z</time>
      </trkpt>
      <trkpt lat="44.84983" lon="5.09437">
        <ele>754.77</ele>
        <time>2025-02-06T13:01:50Z</time>
      </trkpt>
      <trkpt lat="44.84979" lon="5.09402">
        <ele>751.89</ele>
        <time>2025-02-06T13:02:08Z</time>
      </trkpt>
      <trkpt lat="44.84973" lon="5.09363">
        <ele>750.45</ele>
        <time>2025-02-06T13:02:28Z</time>
      </trkpt>
      <trkpt lat="44.84967" lon="5.09332">
        <ele>749.49</ele>
        <time>2025-02-06T13:02:45Z</time>
      </trkpt>
      <trkpt lat="44.8496" lon="5.09302">
        <ele>749</ele>
        <time>2025-02-06T13:03:02Z</time>
      </trkpt>
      <trkpt lat="44.84952" lon="5.09273">
        <ele>749</ele>
        <time>2025-02-06T13:03:19Z</time>
      </trkpt>
      <trkpt lat="44.84942" lon="5.09247">
        <ele>750.93</ele>
        <time>2025-02-06T13:03:36Z</time>
      </trkpt>
      <trkpt lat="44.84936" lon="5.09234">
        <ele>751.41</ele>
        <time>2025-02-06T13:03:44Z</time>
      </trkpt>
      <trkpt lat="44.84933" lon="5.0923">
        <ele>751.41</ele>
        <time>2025-02-06T13:03:48Z</time>
      </trkpt>
      <trkpt lat="44.84924" lon="5.09207">
        <ele>752.37</ele>
        <time>2025-02-06T13:04:04Z</time>
      </trkpt>
      <trkpt lat="44.84924" lon="5.09201">
        <ele>752.85</ele>
        <time>2025-02-06T13:04:08Z</time>
      </trkpt>
      <trkpt lat="44.84922" lon="5.09187">
        <ele>752.85</ele>
        <time>2025-02-06T13:04:23Z</time>
      </trkpt>
      <trkpt lat="44.84926" lon="5.09178">
        <ele>754.29</ele>
        <time>2025-02-06T13:04:37Z</time>
      </trkpt>
      <trkpt lat="44.84933" lon="5.09171">
        <ele>754.29</ele>
        <time>2025-02-06T13:04:45Z</time>
      </trkpt>
      <trkpt lat="44.84936" lon="5.09169">
        <ele>753.33</ele>
        <time>2025-02-06T13:04:48Z</time>
      </trkpt>
      <trkpt lat="44.84946" lon="5.09152">
        <ele>752.85</ele>
        <time>2025-02-06T13:05:05Z</time>
      </trkpt>
      <trkpt lat="44.84949" lon="5.09145">
        <ele>752.37</ele>
        <time>2025-02-06T13:05:21Z</time>
      </trkpt>
      <trkpt lat="44.8495" lon="5.09137">
        <ele>753.33</ele>
        <time>2025-02-06T13:09:07Z</time>
      </trkpt>
      <trkpt lat="44.84952" lon="5.09111">
        <ele>751.89</ele>
        <time>2025-02-06T13:09:24Z</time>
      </trkpt>
      <trkpt lat="44.84951" lon="5.09108">
        <ele>751.89</ele>
        <time>2025-02-06T13:09:26Z</time>
      </trkpt>
      <trkpt lat="44.84948" lon="5.09096">
        <ele>749.49</ele>
        <time>2025-02-06T13:09:41Z</time>
      </trkpt>
      <trkpt lat="44.84941" lon="5.09095">
        <ele>747.08</ele>
        <time>2025-02-06T13:09:51Z</time>
      </trkpt>
      <trkpt lat="44.84927" lon="5.09098">
        <ele>743.72</ele>
        <time>2025-02-06T13:10:06Z</time>
      </trkpt>
      <trkpt lat="44.84914" lon="5.09102">
        <ele>740.83</ele>
        <time>2025-02-06T13:10:19Z</time>
      </trkpt>
      <trkpt lat="44.84916" lon="5.09092">
        <ele>738.91</ele>
        <time>2025-02-06T13:10:27Z</time>
      </trkpt>
      <trkpt lat="44.84921" lon="5.0909">
        <ele>737.95</ele>
        <time>2025-02-06T13:10:31Z</time>
      </trkpt>
      <trkpt lat="44.84927" lon="5.09081">
        <ele>736.51</ele>
        <time>2025-02-06T13:10:38Z</time>
      </trkpt>
      <trkpt lat="44.84942" lon="5.09067">
        <ele>732.66</ele>
        <time>2025-02-06T13:10:52Z</time>
      </trkpt>
      <trkpt lat="44.84942" lon="5.09066">
        <ele>732.66</ele>
        <time>2025-02-06T13:10:53Z</time>
      </trkpt>
      <trkpt lat="44.84947" lon="5.09059">
        <ele>731.22</ele>
        <time>2025-02-06T13:10:59Z</time>
      </trkpt>
      <trkpt lat="44.8495" lon="5.09056">
        <ele>730.26</ele>
        <time>2025-02-06T13:11:03Z</time>
      </trkpt>
      <trkpt lat="44.84954" lon="5.09051">
        <ele>729.3</ele>
        <time>2025-02-06T13:11:07Z</time>
      </trkpt>
      <trkpt lat="44.84967" lon="5.09041">
        <ele>725.45</ele>
        <time>2025-02-06T13:11:19Z</time>
      </trkpt>
      <trkpt lat="44.84978" lon="5.09033">
        <ele>722.09</ele>
        <time>2025-02-06T13:11:30Z</time>
      </trkpt>
      <trkpt lat="44.84979" lon="5.09032">
        <ele>722.09</ele>
        <time>2025-02-06T13:11:31Z</time>
      </trkpt>
      <trkpt lat="44.84984" lon="5.09022">
        <ele>718.72</ele>
        <time>2025-02-06T13:11:40Z</time>
      </trkpt>
      <trkpt lat="44.84992" lon="5.09011">
        <ele>715.36</ele>
        <time>2025-02-06T13:11:50Z</time>
      </trkpt>
      <trkpt lat="44.84997" lon="5.09004">
        <ele>712.47</ele>
        <time>2025-02-06T13:11:59Z</time>
      </trkpt>
      <trkpt lat="44.85001" lon="5.08997">
        <ele>709.59</ele>
        <time>2025-02-06T13:12:05Z</time>
      </trkpt>
      <trkpt lat="44.85008" lon="5.0899">
        <ele>708.15</ele>
        <time>2025-02-06T13:12:21Z</time>
      </trkpt>
      <trkpt lat="44.85007" lon="5.08987">
        <ele>708.15</ele>
        <time>2025-02-06T13:12:33Z</time>
      </trkpt>
      <trkpt lat="44.85006" lon="5.08986">
        <ele>708.15</ele>
        <time>2025-02-06T13:13:32Z</time>
      </trkpt>
      <trkpt lat="44.85003" lon="5.08986">
        <ele>708.15</ele>
        <time>2025-02-06T13:13:36Z</time>
      </trkpt>
      <trkpt lat="44.84983" lon="5.08988">
        <ele>706.71</ele>
        <time>2025-02-06T13:13:56Z</time>
      </trkpt>
      <trkpt lat="44.84964" lon="5.08991">
        <ele>703.82</ele>
        <time>2025-02-06T13:14:14Z</time>
      </trkpt>
      <trkpt lat="44.84948" lon="5.08993">
        <ele>700.46</ele>
        <time>2025-02-06T13:14:27Z</time>
      </trkpt>
      <trkpt lat="44.84929" lon="5.08997">
        <ele>697.09</ele>
        <time>2025-02-06T13:14:41Z</time>
      </trkpt>
      <trkpt lat="44.84911" lon="5.09008">
        <ele>695.65</ele>
        <time>2025-02-06T13:14:55Z</time>
      </trkpt>
      <trkpt lat="44.8491" lon="5.08996">
        <ele>693.25</ele>
        <time>2025-02-06T13:15:06Z</time>
      </trkpt>
      <trkpt lat="44.84921" lon="5.08981">
        <ele>689.4</ele>
        <time>2025-02-06T13:15:19Z</time>
      </trkpt>
      <trkpt lat="44.84931" lon="5.08965">
        <ele>686.52</ele>
        <time>2025-02-06T13:15:31Z</time>
      </trkpt>
      <trkpt lat="44.84933" lon="5.08962">
        <ele>685.56</ele>
        <time>2025-02-06T13:15:33Z</time>
      </trkpt>
      <trkpt lat="44.84942" lon="5.08951">
        <ele>682.67</ele>
        <time>2025-02-06T13:15:43Z</time>
      </trkpt>
      <trkpt lat="44.84955" lon="5.08941">
        <ele>679.31</ele>
        <time>2025-02-06T13:15:55Z</time>
      </trkpt>
      <trkpt lat="44.84957" lon="5.08938">
        <ele>678.83</ele>
        <time>2025-02-06T13:15:57Z</time>
      </trkpt>
      <trkpt lat="44.84969" lon="5.08924">
        <ele>674.98</ele>
        <time>2025-02-06T13:16:11Z</time>
      </trkpt>
      <trkpt lat="44.84981" lon="5.08912">
        <ele>671.14</ele>
        <time>2025-02-06T13:16:23Z</time>
      </trkpt>
      <trkpt lat="44.84985" lon="5.08905">
        <ele>669.7</ele>
        <time>2025-02-06T13:16:28Z</time>
      </trkpt>
      <trkpt lat="44.84991" lon="5.08897">
        <ele>668.25</ele>
        <time>2025-02-06T13:16:35Z</time>
      </trkpt>
      <trkpt lat="44.84998" lon="5.08889">
        <ele>666.33</ele>
        <time>2025-02-06T13:16:42Z</time>
      </trkpt>
      <trkpt lat="44.85006" lon="5.08876">
        <ele>662.97</ele>
        <time>2025-02-06T13:16:52Z</time>
      </trkpt>
      <trkpt lat="44.85018" lon="5.08863">
        <ele>660.08</ele>
        <time>2025-02-06T13:17:04Z</time>
      </trkpt>
      <trkpt lat="44.85034" lon="5.08851">
        <ele>657.2</ele>
        <time>2025-02-06T13:17:19Z</time>
      </trkpt>
      <trkpt lat="44.85047" lon="5.08848">
        <ele>655.28</ele>
        <time>2025-02-06T13:17:29Z</time>
      </trkpt>
      <trkpt lat="44.85067" lon="5.08845">
        <ele>651.43</ele>
        <time>2025-02-06T13:17:45Z</time>
      </trkpt>
      <trkpt lat="44.85073" lon="5.08844">
        <ele>650.47</ele>
        <time>2025-02-06T13:17:50Z</time>
      </trkpt>
      <trkpt lat="44.8508" lon="5.08844">
        <ele>649.51</ele>
        <time>2025-02-06T13:17:55Z</time>
      </trkpt>
      <trkpt lat="44.85096" lon="5.08844">
        <ele>646.14</ele>
        <time>2025-02-06T13:18:08Z</time>
      </trkpt>
      <trkpt lat="44.85112" lon="5.08846">
        <ele>642.78</ele>
        <time>2025-02-06T13:18:19Z</time>
      </trkpt>
      <trkpt lat="44.85128" lon="5.08852">
        <ele>639.41</ele>
        <time>2025-02-06T13:18:31Z</time>
      </trkpt>
      <trkpt lat="44.85144" lon="5.08856">
        <ele>636.05</ele>
        <time>2025-02-06T13:18:43Z</time>
      </trkpt>
      <trkpt lat="44.8516" lon="5.08859">
        <ele>633.17</ele>
        <time>2025-02-06T13:18:55Z</time>
      </trkpt>
      <trkpt lat="44.8518" lon="5.08864">
        <ele>629.8</ele>
        <time>2025-02-06T13:19:10Z</time>
      </trkpt>
      <trkpt lat="44.85194" lon="5.08867">
        <ele>627.4</ele>
        <time>2025-02-06T13:19:21Z</time>
      </trkpt>
      <trkpt lat="44.85212" lon="5.08869">
        <ele>623.55</ele>
        <time>2025-02-06T13:19:35Z</time>
      </trkpt>
      <trkpt lat="44.8523" lon="5.08871">
        <ele>620.19</ele>
        <time>2025-02-06T13:19:49Z</time>
      </trkpt>
      <trkpt lat="44.85244" lon="5.0886">
        <ele>616.82</ele>
        <time>2025-02-06T13:20:02Z</time>
      </trkpt>
      <trkpt lat="44.85251" lon="5.08848">
        <ele>614.9</ele>
        <time>2025-02-06T13:20:11Z</time>
      </trkpt>
      <trkpt lat="44.85263" lon="5.08827">
        <ele>611.06</ele>
        <time>2025-02-06T13:20:25Z</time>
      </trkpt>
      <trkpt lat="44.8527" lon="5.08817">
        <ele>610.57</ele>
        <time>2025-02-06T13:20:36Z</time>
      </trkpt>
      <trkpt lat="44.85275" lon="5.08796">
        <ele>609.61</ele>
        <time>2025-02-06T13:20:53Z</time>
      </trkpt>
      <trkpt lat="44.8528" lon="5.08789">
        <ele>609.13</ele>
        <time>2025-02-06T13:21:08Z</time>
      </trkpt>
      <trkpt lat="44.85283" lon="5.08788">
        <ele>609.13</ele>
        <time>2025-02-06T13:21:32Z</time>
      </trkpt>
      <trkpt lat="44.85293" lon="5.08778">
        <ele>611.06</ele>
        <time>2025-02-06T13:24:19Z</time>
      </trkpt>
      <trkpt lat="44.85304" lon="5.08762">
        <ele>612.98</ele>
        <time>2025-02-06T13:24:35Z</time>
      </trkpt>
      <trkpt lat="44.85314" lon="5.0875">
        <ele>614.9</ele>
        <time>2025-02-06T13:24:49Z</time>
      </trkpt>
      <trkpt lat="44.85324" lon="5.08737">
        <ele>617.3</ele>
        <time>2025-02-06T13:25:03Z</time>
      </trkpt>
      <trkpt lat="44.85331" lon="5.08727">
        <ele>619.23</ele>
        <time>2025-02-06T13:25:16Z</time>
      </trkpt>
      <trkpt lat="44.85339" lon="5.08716">
        <ele>622.11</ele>
        <time>2025-02-06T13:25:29Z</time>
      </trkpt>
      <trkpt lat="44.85349" lon="5.087">
        <ele>623.55</ele>
        <time>2025-02-06T13:25:44Z</time>
      </trkpt>
      <trkpt lat="44.85356" lon="5.08682">
        <ele>624.51</ele>
        <time>2025-02-06T13:25:59Z</time>
      </trkpt>
      <trkpt lat="44.85364" lon="5.0866">
        <ele>626.92</ele>
        <time>2025-02-06T13:26:15Z</time>
      </trkpt>
      <trkpt lat="44.85366" lon="5.08654">
        <ele>626.92</ele>
        <time>2025-02-06T13:26:19Z</time>
      </trkpt>
      <trkpt lat="44.85373" lon="5.08634">
        <ele>628.84</ele>
        <time>2025-02-06T13:26:34Z</time>
      </trkpt>
      <trkpt lat="44.85381" lon="5.0862">
        <ele>630.28</ele>
        <time>2025-02-06T13:26:46Z</time>
      </trkpt>
      <trkpt lat="44.85388" lon="5.08605">
        <ele>631.72</ele>
        <time>2025-02-06T13:26:59Z</time>
      </trkpt>
      <trkpt lat="44.85396" lon="5.08589">
        <ele>633.17</ele>
        <time>2025-02-06T13:27:12Z</time>
      </trkpt>
      <trkpt lat="44.85407" lon="5.08574">
        <ele>635.09</ele>
        <time>2025-02-06T13:27:27Z</time>
      </trkpt>
      <trkpt lat="44.8541" lon="5.0857">
        <ele>635.57</ele>
        <time>2025-02-06T13:27:31Z</time>
      </trkpt>
      <trkpt lat="44.8542" lon="5.08559">
        <ele>638.45</ele>
        <time>2025-02-06T13:27:45Z</time>
      </trkpt>
      <trkpt lat="44.85429" lon="5.08546">
        <ele>641.82</ele>
        <time>2025-02-06T13:27:59Z</time>
      </trkpt>
      <trkpt lat="44.85435" lon="5.08528">
        <ele>642.3</ele>
        <time>2025-02-06T13:28:12Z</time>
      </trkpt>
      <trkpt lat="44.85446" lon="5.08515">
        <ele>641.82</ele>
        <time>2025-02-06T13:28:28Z</time>
      </trkpt>
      <trkpt lat="44.85447" lon="5.08514">
        <ele>641.82</ele>
        <time>2025-02-06T13:28:29Z</time>
      </trkpt>
      <trkpt lat="44.85457" lon="5.08509">
        <ele>638.93</ele>
        <time>2025-02-06T13:28:40Z</time>
      </trkpt>
      <trkpt lat="44.85467" lon="5.08507">
        <ele>635.57</ele>
        <time>2025-02-06T13:28:51Z</time>
      </trkpt>
      <trkpt lat="44.85477" lon="5.08503">
        <ele>632.2</ele>
        <time>2025-02-06T13:29:02Z</time>
      </trkpt>
      <trkpt lat="44.85489" lon="5.08497">
        <ele>628.36</ele>
        <time>2025-02-06T13:29:14Z</time>
      </trkpt>
      <trkpt lat="44.85503" lon="5.08491">
        <ele>625.47</ele>
        <time>2025-02-06T13:29:26Z</time>
      </trkpt>
      <trkpt lat="44.85523" lon="5.08483">
        <ele>623.55</ele>
        <time>2025-02-06T13:29:42Z</time>
      </trkpt>
      <trkpt lat="44.85543" lon="5.08475">
        <ele>621.63</ele>
        <time>2025-02-06T13:29:58Z</time>
      </trkpt>
      <trkpt lat="44.85547" lon="5.08472">
        <ele>621.15</ele>
        <time>2025-02-06T13:30:03Z</time>
      </trkpt>
      <trkpt lat="44.85567" lon="5.08459">
        <ele>622.59</ele>
        <time>2025-02-06T13:30:20Z</time>
      </trkpt>
      <trkpt lat="44.85581" lon="5.0845">
        <ele>624.03</ele>
        <time>2025-02-06T13:30:32Z</time>
      </trkpt>
      <trkpt lat="44.85594" lon="5.08438">
        <ele>624.99</ele>
        <time>2025-02-06T13:30:45Z</time>
      </trkpt>
      <trkpt lat="44.85608" lon="5.08429">
        <ele>623.55</ele>
        <time>2025-02-06T13:31:00Z</time>
      </trkpt>
      <trkpt lat="44.85616" lon="5.0843">
        <ele>621.63</ele>
        <time>2025-02-06T13:31:08Z</time>
      </trkpt>
      <trkpt lat="44.8563" lon="5.08432">
        <ele>618.75</ele>
        <time>2025-02-06T13:31:20Z</time>
      </trkpt>
      <trkpt lat="44.85641" lon="5.08432">
        <ele>615.38</ele>
        <time>2025-02-06T13:31:32Z</time>
      </trkpt>
      <trkpt lat="44.85654" lon="5.08438">
        <ele>612.02</ele>
        <time>2025-02-06T13:31:46Z</time>
      </trkpt>
      <trkpt lat="44.8567" lon="5.08443">
        <ele>608.65</ele>
        <time>2025-02-06T13:32:01Z</time>
      </trkpt>
      <trkpt lat="44.85686" lon="5.08447">
        <ele>606.25</ele>
        <time>2025-02-06T13:32:15Z</time>
      </trkpt>
      <trkpt lat="44.85702" lon="5.08448">
        <ele>605.29</ele>
        <time>2025-02-06T13:32:29Z</time>
      </trkpt>
      <trkpt lat="44.85718" lon="5.0845">
        <ele>604.33</ele>
        <time>2025-02-06T13:32:42Z</time>
      </trkpt>
      <trkpt lat="44.85733" lon="5.08447">
        <ele>604.33</ele>
        <time>2025-02-06T13:32:54Z</time>
      </trkpt>
      <trkpt lat="44.85751" lon="5.08443">
        <ele>601.92</ele>
        <time>2025-02-06T13:33:10Z</time>
      </trkpt>
      <trkpt lat="44.85762" lon="5.08438">
        <ele>600.48</ele>
        <time>2025-02-06T13:33:20Z</time>
      </trkpt>
      <trkpt lat="44.8578" lon="5.0843">
        <ele>599.04</ele>
        <time>2025-02-06T13:33:35Z</time>
      </trkpt>
      <trkpt lat="44.85799" lon="5.08426">
        <ele>598.08</ele>
        <time>2025-02-06T13:33:51Z</time>
      </trkpt>
      <trkpt lat="44.85815" lon="5.08415">
        <ele>597.12</ele>
        <time>2025-02-06T13:34:06Z</time>
      </trkpt>
      <trkpt lat="44.85817" lon="5.08414">
        <ele>597.12</ele>
        <time>2025-02-06T13:34:08Z</time>
      </trkpt>
      <trkpt lat="44.85824" lon="5.08412">
        <ele>596.64</ele>
        <time>2025-02-06T13:34:14Z</time>
      </trkpt>
      <trkpt lat="44.85842" lon="5.08407">
        <ele>596.15</ele>
        <time>2025-02-06T13:34:29Z</time>
      </trkpt>
      <trkpt lat="44.85861" lon="5.08402">
        <ele>594.23</ele>
        <time>2025-02-06T13:34:45Z</time>
      </trkpt>
      <trkpt lat="44.85877" lon="5.08404">
        <ele>592.31</ele>
        <time>2025-02-06T13:34:58Z</time>
      </trkpt>
      <trkpt lat="44.85894" lon="5.08404">
        <ele>588.95</ele>
        <time>2025-02-06T13:35:13Z</time>
      </trkpt>
      <trkpt lat="44.85908" lon="5.08411">
        <ele>586.06</ele>
        <time>2025-02-06T13:35:28Z</time>
      </trkpt>
      <trkpt lat="44.85918" lon="5.08414">
        <ele>585.1</ele>
        <time>2025-02-06T13:35:43Z</time>
      </trkpt>
      <trkpt lat="44.85921" lon="5.08412">
        <ele>584.62</ele>
        <time>2025-02-06T13:35:52Z</time>
      </trkpt>
      <trkpt lat="44.85931" lon="5.08415">
        <ele>583.66</ele>
        <time>2025-02-06T13:36:02Z</time>
      </trkpt>
      <trkpt lat="44.85953" lon="5.08424">
        <ele>581.25</ele>
        <time>2025-02-06T13:38:01Z</time>
      </trkpt>
      <trkpt lat="44.85968" lon="5.08429">
        <ele>580.77</ele>
        <time>2025-02-06T13:38:16Z</time>
      </trkpt>
      <trkpt lat="44.85988" lon="5.08431">
        <ele>580.77</ele>
        <time>2025-02-06T13:38:32Z</time>
      </trkpt>
      <trkpt lat="44.86003" lon="5.08433">
        <ele>582.7</ele>
        <time>2025-02-06T13:38:45Z</time>
      </trkpt>
      <trkpt lat="44.86019" lon="5.08432">
        <ele>584.62</ele>
        <time>2025-02-06T13:39:00Z</time>
      </trkpt>
      <trkpt lat="44.86038" lon="5.08433">
        <ele>585.58</ele>
        <time>2025-02-06T13:39:15Z</time>
      </trkpt>
      <trkpt lat="44.86056" lon="5.08436">
        <ele>587.02</ele>
        <time>2025-02-06T13:39:30Z</time>
      </trkpt>
      <trkpt lat="44.86066" lon="5.08438">
        <ele>587.5</ele>
        <time>2025-02-06T13:39:38Z</time>
      </trkpt>
      <trkpt lat="44.8607" lon="5.08441">
        <ele>587.5</ele>
        <time>2025-02-06T13:39:42Z</time>
      </trkpt>
      <trkpt lat="44.86074" lon="5.08442">
        <ele>587.98</ele>
        <time>2025-02-06T13:39:45Z</time>
      </trkpt>
      <trkpt lat="44.8609" lon="5.08441">
        <ele>589.43</ele>
        <time>2025-02-06T13:39:58Z</time>
      </trkpt>
      <trkpt lat="44.86108" lon="5.08444">
        <ele>590.39</ele>
        <time>2025-02-06T13:40:13Z</time>
      </trkpt>
      <trkpt lat="44.86111" lon="5.08444">
        <ele>590.39</ele>
        <time>2025-02-06T13:40:17Z</time>
      </trkpt>
      <trkpt lat="44.86116" lon="5.0845">
        <ele>591.35</ele>
        <time>2025-02-06T13:40:28Z</time>
      </trkpt>
      <trkpt lat="44.86123" lon="5.08454">
        <ele>591.35</ele>
        <time>2025-02-06T13:40:33Z</time>
      </trkpt>
      <trkpt lat="44.86137" lon="5.08461">
        <ele>589.43</ele>
        <time>2025-02-06T13:40:45Z</time>
      </trkpt>
      <trkpt lat="44.86154" lon="5.08472">
        <ele>585.1</ele>
        <time>2025-02-06T13:41:00Z</time>
      </trkpt>
      <trkpt lat="44.86169" lon="5.0848">
        <ele>581.73</ele>
        <time>2025-02-06T13:41:12Z</time>
      </trkpt>
      <trkpt lat="44.86179" lon="5.08486">
        <ele>578.85</ele>
        <time>2025-02-06T13:41:21Z</time>
      </trkpt>
      <trkpt lat="44.86183" lon="5.08489">
        <ele>577.89</ele>
        <time>2025-02-06T13:41:25Z</time>
      </trkpt>
      <trkpt lat="44.86199" lon="5.08499">
        <ele>574.53</ele>
        <time>2025-02-06T13:41:38Z</time>
      </trkpt>
      <trkpt lat="44.86218" lon="5.0851">
        <ele>571.64</ele>
        <time>2025-02-06T13:41:52Z</time>
      </trkpt>
      <trkpt lat="44.86226" lon="5.08517">
        <ele>571.64</ele>
        <time>2025-02-06T13:41:59Z</time>
      </trkpt>
      <trkpt lat="44.8623" lon="5.08519">
        <ele>570.68</ele>
        <time>2025-02-06T13:42:03Z</time>
      </trkpt>
      <trkpt lat="44.86233" lon="5.0852">
        <ele>570.68</ele>
        <time>2025-02-06T13:42:05Z</time>
      </trkpt>
      <trkpt lat="44.86252" lon="5.08526">
        <ele>568.76</ele>
        <time>2025-02-06T13:42:20Z</time>
      </trkpt>
      <trkpt lat="44.86267" lon="5.08533">
        <ele>568.28</ele>
        <time>2025-02-06T13:42:34Z</time>
      </trkpt>
      <trkpt lat="44.86284" lon="5.08537">
        <ele>568.28</ele>
        <time>2025-02-06T13:42:46Z</time>
      </trkpt>
      <trkpt lat="44.86299" lon="5.08539">
        <ele>569.24</ele>
        <time>2025-02-06T13:42:58Z</time>
      </trkpt>
      <trkpt lat="44.86319" lon="5.08541">
        <ele>571.64</ele>
        <time>2025-02-06T13:43:14Z</time>
      </trkpt>
      <trkpt lat="44.86331" lon="5.08542">
        <ele>573.08</ele>
        <time>2025-02-06T13:43:25Z</time>
      </trkpt>
      <trkpt lat="44.86338" lon="5.08542">
        <ele>573.56</ele>
        <time>2025-02-06T13:43:30Z</time>
      </trkpt>
      <trkpt lat="44.86356" lon="5.08545">
        <ele>574.53</ele>
        <time>2025-02-06T13:43:46Z</time>
      </trkpt>
      <trkpt lat="44.86364" lon="5.08546">
        <ele>574.53</ele>
        <time>2025-02-06T13:43:52Z</time>
      </trkpt>
      <trkpt lat="44.86369" lon="5.08547">
        <ele>574.53</ele>
        <time>2025-02-06T13:43:56Z</time>
      </trkpt>
      <trkpt lat="44.86389" lon="5.08553">
        <ele>574.53</ele>
        <time>2025-02-06T13:44:12Z</time>
      </trkpt>
      <trkpt lat="44.86399" lon="5.08558">
        <ele>573.08</ele>
        <time>2025-02-06T13:44:20Z</time>
      </trkpt>
      <trkpt lat="44.86415" lon="5.08569">
        <ele>570.68</ele>
        <time>2025-02-06T13:44:35Z</time>
      </trkpt>
      <trkpt lat="44.86417" lon="5.08572">
        <ele>570.2</ele>
        <time>2025-02-06T13:44:38Z</time>
      </trkpt>
      <trkpt lat="44.86435" lon="5.08578">
        <ele>568.28</ele>
        <time>2025-02-06T13:44:53Z</time>
      </trkpt>
      <trkpt lat="44.86438" lon="5.08578">
        <ele>568.28</ele>
        <time>2025-02-06T13:44:55Z</time>
      </trkpt>
      <trkpt lat="44.86449" lon="5.08584">
        <ele>567.32</ele>
        <time>2025-02-06T13:45:05Z</time>
      </trkpt>
      <trkpt lat="44.86453" lon="5.08586">
        <ele>567.32</ele>
        <time>2025-02-06T13:45:08Z</time>
      </trkpt>
      <trkpt lat="44.86471" lon="5.08589">
        <ele>566.35</ele>
        <time>2025-02-06T13:45:23Z</time>
      </trkpt>
      <trkpt lat="44.86472" lon="5.08589">
        <ele>566.35</ele>
        <time>2025-02-06T13:45:24Z</time>
      </trkpt>
      <trkpt lat="44.86487" lon="5.0859">
        <ele>565.39</ele>
        <time>2025-02-06T13:45:38Z</time>
      </trkpt>
      <trkpt lat="44.86501" lon="5.08585">
        <ele>564.43</ele>
        <time>2025-02-06T13:45:51Z</time>
      </trkpt>
      <trkpt lat="44.86517" lon="5.08585">
        <ele>563.95</ele>
        <time>2025-02-06T13:46:04Z</time>
      </trkpt>
      <trkpt lat="44.86527" lon="5.08581">
        <ele>562.99</ele>
        <time>2025-02-06T13:46:13Z</time>
      </trkpt>
      <trkpt lat="44.86535" lon="5.08578">
        <ele>562.99</ele>
        <time>2025-02-06T13:46:19Z</time>
      </trkpt>
      <trkpt lat="44.8654" lon="5.08574">
        <ele>562.51</ele>
        <time>2025-02-06T13:46:23Z</time>
      </trkpt>
      <trkpt lat="44.86556" lon="5.08564">
        <ele>561.55</ele>
        <time>2025-02-06T13:46:37Z</time>
      </trkpt>
      <trkpt lat="44.86568" lon="5.08554">
        <ele>561.55</ele>
        <time>2025-02-06T13:46:49Z</time>
      </trkpt>
      <trkpt lat="44.86583" lon="5.08545">
        <ele>561.55</ele>
        <time>2025-02-06T13:47:01Z</time>
      </trkpt>
      <trkpt lat="44.86599" lon="5.08535">
        <ele>561.07</ele>
        <time>2025-02-06T13:47:15Z</time>
      </trkpt>
      <trkpt lat="44.86613" lon="5.08524">
        <ele>560.59</ele>
        <time>2025-02-06T13:47:29Z</time>
      </trkpt>
      <trkpt lat="44.86628" lon="5.08516">
        <ele>560.11</ele>
        <time>2025-02-06T13:47:42Z</time>
      </trkpt>
      <trkpt lat="44.86645" lon="5.08506">
        <ele>559.14</ele>
        <time>2025-02-06T13:48:00Z</time>
      </trkpt>
      <trkpt lat="44.86662" lon="5.08499">
        <ele>558.66</ele>
        <time>2025-02-06T13:48:14Z</time>
      </trkpt>
      <trkpt lat="44.86676" lon="5.08494">
        <ele>558.18</ele>
        <time>2025-02-06T13:48:25Z</time>
      </trkpt>
      <trkpt lat="44.86683" lon="5.08487">
        <ele>558.18</ele>
        <time>2025-02-06T13:48:50Z</time>
      </trkpt>
      <trkpt lat="44.86686" lon="5.08486">
        <ele>558.66</ele>
        <time>2025-02-06T13:51:45Z</time>
      </trkpt>
      <trkpt lat="44.86689" lon="5.08486">
        <ele>558.66</ele>
        <time>2025-02-06T13:51:51Z</time>
      </trkpt>
      <trkpt lat="44.86701" lon="5.08485">
        <ele>558.18</ele>
        <time>2025-02-06T13:52:04Z</time>
      </trkpt>
      <trkpt lat="44.86712" lon="5.08479">
        <ele>556.74</ele>
        <time>2025-02-06T13:52:12Z</time>
      </trkpt>
      <trkpt lat="44.86726" lon="5.08472">
        <ele>552.9</ele>
        <time>2025-02-06T13:52:24Z</time>
      </trkpt>
      <trkpt lat="44.86731" lon="5.08463">
        <ele>549.53</ele>
        <time>2025-02-06T13:52:32Z</time>
      </trkpt>
      <trkpt lat="44.86738" lon="5.08458">
        <ele>546.17</ele>
        <time>2025-02-06T13:52:39Z</time>
      </trkpt>
      <trkpt lat="44.86743" lon="5.08451">
        <ele>543.28</ele>
        <time>2025-02-06T13:52:46Z</time>
      </trkpt>
      <trkpt lat="44.86748" lon="5.08443">
        <ele>540.4</ele>
        <time>2025-02-06T13:52:53Z</time>
      </trkpt>
      <trkpt lat="44.8675" lon="5.0844">
        <ele>538.96</ele>
        <time>2025-02-06T13:52:56Z</time>
      </trkpt>
      <trkpt lat="44.86759" lon="5.08432">
        <ele>535.59</ele>
        <time>2025-02-06T13:53:05Z</time>
      </trkpt>
      <trkpt lat="44.86768" lon="5.08419">
        <ele>532.71</ele>
        <time>2025-02-06T13:53:15Z</time>
      </trkpt>
      <trkpt lat="44.86782" lon="5.0841">
        <ele>529.34</ele>
        <time>2025-02-06T13:53:27Z</time>
      </trkpt>
      <trkpt lat="44.86793" lon="5.08403">
        <ele>527.42</ele>
        <time>2025-02-06T13:53:36Z</time>
      </trkpt>
      <trkpt lat="44.86809" lon="5.08395">
        <ele>524.06</ele>
        <time>2025-02-06T13:53:49Z</time>
      </trkpt>
      <trkpt lat="44.86822" lon="5.08388">
        <ele>520.21</ele>
        <time>2025-02-06T13:54:02Z</time>
      </trkpt>
      <trkpt lat="44.86832" lon="5.08383">
        <ele>517.33</ele>
        <time>2025-02-06T13:54:12Z</time>
      </trkpt>
      <trkpt lat="44.86842" lon="5.08371">
        <ele>513.96</ele>
        <time>2025-02-06T13:54:22Z</time>
      </trkpt>
      <trkpt lat="44.86851" lon="5.08366">
        <ele>511.08</ele>
        <time>2025-02-06T13:54:30Z</time>
      </trkpt>
      <trkpt lat="44.86858" lon="5.08357">
        <ele>507.71</ele>
        <time>2025-02-06T13:54:40Z</time>
      </trkpt>
      <trkpt lat="44.86863" lon="5.08351">
        <ele>506.27</ele>
        <time>2025-02-06T13:54:45Z</time>
      </trkpt>
      <trkpt lat="44.86872" lon="5.0834">
        <ele>502.43</ele>
        <time>2025-02-06T13:54:56Z</time>
      </trkpt>
      <trkpt lat="44.86882" lon="5.08327">
        <ele>499.06</ele>
        <time>2025-02-06T13:55:07Z</time>
      </trkpt>
      <trkpt lat="44.86891" lon="5.08319">
        <ele>495.7</ele>
        <time>2025-02-06T13:55:17Z</time>
      </trkpt>
      <trkpt lat="44.86902" lon="5.08309">
        <ele>491.85</ele>
        <time>2025-02-06T13:55:30Z</time>
      </trkpt>
      <trkpt lat="44.86909" lon="5.08303">
        <ele>489.93</ele>
        <time>2025-02-06T13:55:37Z</time>
      </trkpt>
      <trkpt lat="44.86918" lon="5.08301">
        <ele>487.53</ele>
        <time>2025-02-06T13:55:44Z</time>
      </trkpt>
      <trkpt lat="44.86921" lon="5.083">
        <ele>487.05</ele>
        <time>2025-02-06T13:55:46Z</time>
      </trkpt>
      <trkpt lat="44.86938" lon="5.0829">
        <ele>484.16</ele>
        <time>2025-02-06T13:56:00Z</time>
      </trkpt>
      <trkpt lat="44.86946" lon="5.08287">
        <ele>482.24</ele>
        <time>2025-02-06T13:56:06Z</time>
      </trkpt>
      <trkpt lat="44.86958" lon="5.08282">
        <ele>479.84</ele>
        <time>2025-02-06T13:56:18Z</time>
      </trkpt>
      <trkpt lat="44.86964" lon="5.08278">
        <ele>478.39</ele>
        <time>2025-02-06T13:56:24Z</time>
      </trkpt>
      <trkpt lat="44.86973" lon="5.08272">
        <ele>476.47</ele>
        <time>2025-02-06T13:56:32Z</time>
      </trkpt>
      <trkpt lat="44.86986" lon="5.08257">
        <ele>473.59</ele>
        <time>2025-02-06T13:56:47Z</time>
      </trkpt>
      <trkpt lat="44.8699" lon="5.08242">
        <ele>470.22</ele>
        <time>2025-02-06T13:56:59Z</time>
      </trkpt>
      <trkpt lat="44.86994" lon="5.08231">
        <ele>466.86</ele>
        <time>2025-02-06T13:57:09Z</time>
      </trkpt>
      <trkpt lat="44.86997" lon="5.08219">
        <ele>463.97</ele>
        <time>2025-02-06T13:57:20Z</time>
      </trkpt>
      <trkpt lat="44.87005" lon="5.08207">
        <ele>460.61</ele>
        <time>2025-02-06T13:57:31Z</time>
      </trkpt>
      <trkpt lat="44.87013" lon="5.08202">
        <ele>458.69</ele>
        <time>2025-02-06T13:57:38Z</time>
      </trkpt>
      <trkpt lat="44.87022" lon="5.08196">
        <ele>455.8</ele>
        <time>2025-02-06T13:57:47Z</time>
      </trkpt>
      <trkpt lat="44.87035" lon="5.08184">
        <ele>452.44</ele>
        <time>2025-02-06T13:57:59Z</time>
      </trkpt>
      <trkpt lat="44.87048" lon="5.08167">
        <ele>450.03</ele>
        <time>2025-02-06T13:58:13Z</time>
      </trkpt>
      <trkpt lat="44.87057" lon="5.08154">
        <ele>447.15</ele>
        <time>2025-02-06T13:58:25Z</time>
      </trkpt>
      <trkpt lat="44.87065" lon="5.08144">
        <ele>443.79</ele>
        <time>2025-02-06T13:58:36Z</time>
      </trkpt>
      <trkpt lat="44.87068" lon="5.08141">
        <ele>443.31</ele>
        <time>2025-02-06T13:58:40Z</time>
      </trkpt>
      <trkpt lat="44.87075" lon="5.08135">
        <ele>439.94</ele>
        <time>2025-02-06T13:58:49Z</time>
      </trkpt>
      <trkpt lat="44.87083" lon="5.08129">
        <ele>436.58</ele>
        <time>2025-02-06T13:59:02Z</time>
      </trkpt>
      <trkpt lat="44.87094" lon="5.08131">
        <ele>433.69</ele>
        <time>2025-02-06T13:59:15Z</time>
      </trkpt>
      <trkpt lat="44.87099" lon="5.08133">
        <ele>432.73</ele>
        <time>2025-02-06T13:59:19Z</time>
      </trkpt>
      <trkpt lat="44.87109" lon="5.08139">
        <ele>429.37</ele>
        <time>2025-02-06T13:59:30Z</time>
      </trkpt>
      <trkpt lat="44.87118" lon="5.08146">
        <ele>426.48</ele>
        <time>2025-02-06T13:59:41Z</time>
      </trkpt>
      <trkpt lat="44.87124" lon="5.08156">
        <ele>423.12</ele>
        <time>2025-02-06T13:59:52Z</time>
      </trkpt>
      <trkpt lat="44.87131" lon="5.08168">
        <ele>419.75</ele>
        <time>2025-02-06T14:00:02Z</time>
      </trkpt>
      <trkpt lat="44.8714" lon="5.08175">
        <ele>416.87</ele>
        <time>2025-02-06T14:00:12Z</time>
      </trkpt>
      <trkpt lat="44.87144" lon="5.08164">
        <ele>413.5</ele>
        <time>2025-02-06T14:00:22Z</time>
      </trkpt>
      <trkpt lat="44.87147" lon="5.08151">
        <ele>411.1</ele>
        <time>2025-02-06T14:00:31Z</time>
      </trkpt>
      <trkpt lat="44.87147" lon="5.08132">
        <ele>407.74</ele>
        <time>2025-02-06T14:00:44Z</time>
      </trkpt>
      <trkpt lat="44.87144" lon="5.08114">
        <ele>404.37</ele>
        <time>2025-02-06T14:00:58Z</time>
      </trkpt>
      <trkpt lat="44.87144" lon="5.08095">
        <ele>400.53</ele>
        <time>2025-02-06T14:01:11Z</time>
      </trkpt>
      <trkpt lat="44.87139" lon="5.08081">
        <ele>397.16</ele>
        <time>2025-02-06T14:01:23Z</time>
      </trkpt>
      <trkpt lat="44.87137" lon="5.08061">
        <ele>395.24</ele>
        <time>2025-02-06T14:01:37Z</time>
      </trkpt>
      <trkpt lat="44.87145" lon="5.08054">
        <ele>393.32</ele>
        <time>2025-02-06T14:01:52Z</time>
      </trkpt>
      <trkpt lat="44.87149" lon="5.08049">
        <ele>393.32</ele>
        <time>2025-02-06T14:04:10Z</time>
      </trkpt>
      <trkpt lat="44.87151" lon="5.08046">
        <ele>392.84</ele>
        <time>2025-02-06T14:04:14Z</time>
      </trkpt>
      <trkpt lat="44.87157" lon="5.08035">
        <ele>390.43</ele>
        <time>2025-02-06T14:04:26Z</time>
      </trkpt>
      <trkpt lat="44.87164" lon="5.08023">
        <ele>387.55</ele>
        <time>2025-02-06T14:04:35Z</time>
      </trkpt>
      <trkpt lat="44.87176" lon="5.08006">
        <ele>386.11</ele>
        <time>2025-02-06T14:04:50Z</time>
      </trkpt>
      <trkpt lat="44.87186" lon="5.07992">
        <ele>383.7</ele>
        <time>2025-02-06T14:05:02Z</time>
      </trkpt>
      <trkpt lat="44.87192" lon="5.07982">
        <ele>382.74</ele>
        <time>2025-02-06T14:05:09Z</time>
      </trkpt>
      <trkpt lat="44.87197" lon="5.07971">
        <ele>382.26</ele>
        <time>2025-02-06T14:06:44Z</time>
      </trkpt>
      <trkpt lat="44.87201" lon="5.07964">
        <ele>382.26</ele>
        <time>2025-02-06T14:06:57Z</time>
      </trkpt>
      <trkpt lat="44.87202" lon="5.07959">
        <ele>381.3</ele>
        <time>2025-02-06T14:07:00Z</time>
      </trkpt>
      <trkpt lat="44.87211" lon="5.07933">
        <ele>378.42</ele>
        <time>2025-02-06T14:07:19Z</time>
      </trkpt>
      <trkpt lat="44.87212" lon="5.0793">
        <ele>378.42</ele>
        <time>2025-02-06T14:07:21Z</time>
      </trkpt>
      <trkpt lat="44.87214" lon="5.07924">
        <ele>377.94</ele>
        <time>2025-02-06T14:07:25Z</time>
      </trkpt>
      <trkpt lat="44.87212" lon="5.0791">
        <ele>376.01</ele>
        <time>2025-02-06T14:07:39Z</time>
      </trkpt>
      <trkpt lat="44.87209" lon="5.07908">
        <ele>376.01</ele>
        <time>2025-02-06T14:07:51Z</time>
      </trkpt>
      <trkpt lat="44.87206" lon="5.07896">
        <ele>374.09</ele>
        <time>2025-02-06T14:08:04Z</time>
      </trkpt>
      <trkpt lat="44.87202" lon="5.07888">
        <ele>373.13</ele>
        <time>2025-02-06T14:08:09Z</time>
      </trkpt>
      <trkpt lat="44.87199" lon="5.07882">
        <ele>372.65</ele>
        <time>2025-02-06T14:08:15Z</time>
      </trkpt>
      <trkpt lat="44.87197" lon="5.07873">
        <ele>371.21</ele>
        <time>2025-02-06T14:08:20Z</time>
      </trkpt>
      <trkpt lat="44.87193" lon="5.07845">
        <ele>367.84</ele>
        <time>2025-02-06T14:08:36Z</time>
      </trkpt>
      <trkpt lat="44.87193" lon="5.07809">
        <ele>365.92</ele>
        <time>2025-02-06T14:08:54Z</time>
      </trkpt>
      <trkpt lat="44.87191" lon="5.07778">
        <ele>364.48</ele>
        <time>2025-02-06T14:09:11Z</time>
      </trkpt>
      <trkpt lat="44.8719" lon="5.07745">
        <ele>363.52</ele>
        <time>2025-02-06T14:09:28Z</time>
      </trkpt>
      <trkpt lat="44.87177" lon="5.07721">
        <ele>361.11</ele>
        <time>2025-02-06T14:09:47Z</time>
      </trkpt>
      <trkpt lat="44.87155" lon="5.07721">
        <ele>361.11</ele>
        <time>2025-02-06T14:10:04Z</time>
      </trkpt>
      <trkpt lat="44.87136" lon="5.07726">
        <ele>361.11</ele>
        <time>2025-02-06T14:10:21Z</time>
      </trkpt>
      <trkpt lat="44.87124" lon="5.07729">
        <ele>361.11</ele>
        <time>2025-02-06T14:10:33Z</time>
      </trkpt>
      <trkpt lat="44.87115" lon="5.07726">
        <ele>361.11</ele>
        <time>2025-02-06T14:10:50Z</time>
      </trkpt>
    </trkseg>
  </trk>
</gpx>